UAE414A OMDB-YSSY
Flight info
| Callsign | UAE414A |
|---|---|
| Flight time | 13h 20m |
| Altitude | 29000 |
| Route | ANVIX L223 TARDI N629 GIDAN P570 EMURU M300 KADOL/N0505F310 M300 VASTU P895 BIKOK M641 RUXER/N0500F330 M641 DOGAR DCT DAOVO DCT PIBED DCT 09S094E 10S095E DCT POROR DCT 19S106E/N0490F350 21S109E DCT ATLOD DCT ISDOR DCT LST DCT FRT DCT ENTRE/N0472F370 DCT CDU J149 WHA J21 BORLI H205 CULIN Y59 RIVET |
| Aircraft | B77W/H-SDE1E2E3FGHIJ2J3J4J5M1RWXY/LB1D1 |
Departure
| Time | 2026-05-04 22:26 |
|---|---|
| Airport | Dubai International Airport (OMDB) |
Arrival
| Time | 2026-05-05 11:46 |
|---|---|
| Airport | Sydney Kingsford Smith International Airport (YSSY) |
| Time | Latitude | Longitude | Altitude | Speed | Heading |
|---|---|---|---|---|---|
| 2026-05-04 21:43 | 25.24639 | 55.36655 | 30 ft | 0 kts | 276° |
| 2026-05-04 22:15 | 25.24637 | 55.36670 | 30 ft | 4 kts | 276° |
| 2026-05-04 22:16 | 25.24635 | 55.36699 | 31 ft | 4 kts | 276° |
| 2026-05-04 22:16 | 25.24632 | 55.36724 | 31 ft | 4 kts | 294° |
| 2026-05-04 22:16 | 25.24616 | 55.36741 | 31 ft | 4 kts | 353° |
| 2026-05-04 22:16 | 25.24592 | 55.36736 | 31 ft | 4 kts | 31° |
| 2026-05-04 22:17 | 25.24569 | 55.36721 | 31 ft | 4 kts | 31° |
| 2026-05-04 22:17 | 25.24560 | 55.36715 | 31 ft | 0 kts | 31° |
| 2026-05-04 22:20 | 25.24564 | 55.36717 | 31 ft | 1 kts | 31° |
| 2026-05-04 22:20 | 25.24598 | 55.36740 | 31 ft | 13 kts | 31° |
| 2026-05-04 22:20 | 25.24676 | 55.36792 | 29 ft | 13 kts | 31° |
| 2026-05-04 22:21 | 25.24753 | 55.36844 | 29 ft | 15 kts | 31° |
| 2026-05-04 22:21 | 25.24798 | 55.36949 | 26 ft | 18 kts | 114° |
| 2026-05-04 22:21 | 25.24720 | 55.37091 | 27 ft | 25 kts | 122° |
| 2026-05-04 22:21 | 25.24627 | 55.37256 | 29 ft | 25 kts | 122° |
| 2026-05-04 22:22 | 25.24536 | 55.37418 | 29 ft | 25 kts | 122° |
| 2026-05-04 22:22 | 25.24443 | 55.37584 | 29 ft | 25 kts | 122° |
| 2026-05-04 22:22 | 25.24385 | 55.37722 | 28 ft | 17 kts | 78° |
| 2026-05-04 22:22 | 25.24470 | 55.37808 | 27 ft | 17 kts | 34° |
| 2026-05-04 22:23 | 25.24569 | 55.37883 | 28 ft | 17 kts | 34° |
| 2026-05-04 22:23 | 25.24644 | 55.37939 | 27 ft | 6 kts | 33° |
| 2026-05-04 22:23 | 25.24680 | 55.37964 | 27 ft | 6 kts | 32° |
| 2026-05-04 22:23 | 25.24721 | 55.37992 | 28 ft | 10 kts | 32° |
| 2026-05-04 22:24 | 25.24782 | 55.38028 | 30 ft | 10 kts | 11° |
| 2026-05-04 22:24 | 25.24832 | 55.37979 | 30 ft | 10 kts | 301° |
| 2026-05-04 22:24 | 25.24837 | 55.37969 | 30 ft | 0 kts | 301° |
| 2026-05-04 22:25 | 25.24872 | 55.37906 | 30 ft | 27 kts | 301° |
| 2026-05-04 22:25 | 25.25110 | 55.37479 | 32 ft | 103 kts | 301° |
| 2026-05-04 22:25 | 25.25605 | 55.36586 | 29 ft | 170 kts | 301° |
| 2026-05-04 22:26 | 25.26309 | 55.35303 | 236 ft | 201 kts | 301° |
| 2026-05-04 22:26 | 25.27057 | 55.33993 | 846 ft | 204 kts | 301° |
| 2026-05-04 22:26 | 25.27794 | 55.32671 | 1404 ft | 205 kts | 301° |
| 2026-05-04 22:26 | 25.28528 | 55.31339 | 2007 ft | 198 kts | 303° |
| 2026-05-04 22:27 | 25.29198 | 55.30012 | 2302 ft | 200 kts | 288° |
| 2026-05-04 22:27 | 25.29183 | 55.28514 | 2434 ft | 202 kts | 251° |
| 2026-05-04 22:27 | 25.28598 | 55.27096 | 2709 ft | 201 kts | 246° |
| 2026-05-04 22:27 | 25.27977 | 55.25678 | 2969 ft | 206 kts | 246° |
| 2026-05-04 22:28 | 25.27358 | 55.24251 | 3259 ft | 207 kts | 247° |
| 2026-05-04 22:28 | 25.26743 | 55.22819 | 3516 ft | 210 kts | 246° |
| 2026-05-04 22:28 | 25.26116 | 55.21356 | 3767 ft | 212 kts | 247° |
| 2026-05-04 22:28 | 25.25462 | 55.19822 | 3869 ft | 226 kts | 246° |
| 2026-05-04 22:29 | 25.24759 | 55.18210 | 4011 ft | 237 kts | 240° |
| 2026-05-04 22:29 | 25.23585 | 55.16928 | 4183 ft | 249 kts | 204° |
| 2026-05-04 22:29 | 25.21851 | 55.16620 | 4351 ft | 259 kts | 175° |
| 2026-05-04 22:29 | 25.20023 | 55.16834 | 4620 ft | 267 kts | 166° |
| 2026-05-04 22:30 | 25.18378 | 55.17718 | 4858 ft | 270 kts | 132° |
| 2026-05-04 22:30 | 25.17322 | 55.19455 | 5011 ft | 276 kts | 113° |
| 2026-05-04 22:30 | 25.16452 | 55.21361 | 5354 ft | 284 kts | 115° |
| 2026-05-04 22:30 | 25.15516 | 55.23315 | 5839 ft | 289 kts | 115° |
| 2026-05-04 22:31 | 25.14566 | 55.25290 | 6381 ft | 291 kts | 115° |
| 2026-05-04 22:31 | 25.13629 | 55.27238 | 6983 ft | 289 kts | 115° |
| 2026-05-04 22:31 | 25.12688 | 55.29199 | 7615 ft | 288 kts | 116° |
| 2026-05-04 22:31 | 25.11737 | 55.31176 | 8126 ft | 292 kts | 116° |
| 2026-05-04 22:32 | 25.10793 | 55.33139 | 8606 ft | 294 kts | 115° |
| 2026-05-04 22:32 | 25.09903 | 55.35184 | 9139 ft | 295 kts | 112° |
| 2026-05-04 22:32 | 25.09061 | 55.37270 | 9664 ft | 297 kts | 112° |
| 2026-05-04 22:32 | 25.08221 | 55.39342 | 10128 ft | 300 kts | 112° |
| 2026-05-04 22:33 | 25.07358 | 55.41452 | 10568 ft | 303 kts | 112° |
| 2026-05-04 22:33 | 25.06503 | 55.43624 | 10848 ft | 316 kts | 111° |
| 2026-05-04 22:33 | 25.05625 | 55.45924 | 10961 ft | 333 kts | 111° |
| 2026-05-04 22:33 | 25.04717 | 55.48307 | 11098 ft | 349 kts | 111° |
| 2026-05-04 22:34 | 25.03747 | 55.50835 | 11230 ft | 367 kts | 112° |
| 2026-05-04 22:34 | 25.02722 | 55.53494 | 11373 ft | 383 kts | 112° |
| 2026-05-04 22:34 | 25.01632 | 55.56240 | 11690 ft | 393 kts | 116° |
| 2026-05-04 22:34 | 25.00299 | 55.58869 | 12082 ft | 400 kts | 121° |
| 2026-05-04 22:35 | 24.98802 | 55.61482 | 12646 ft | 403 kts | 122° |
| 2026-05-04 22:35 | 24.97295 | 55.64121 | 13216 ft | 406 kts | 121° |
| 2026-05-04 22:35 | 24.95838 | 55.66761 | 13718 ft | 409 kts | 121° |
| 2026-05-04 22:35 | 24.94364 | 55.69482 | 14171 ft | 413 kts | 121° |
| 2026-05-04 22:36 | 24.92792 | 55.72155 | 14642 ft | 416 kts | 125° |
| 2026-05-04 22:36 | 24.91088 | 55.74706 | 15089 ft | 419 kts | 127° |
| 2026-05-04 22:36 | 24.89312 | 55.77278 | 15575 ft | 422 kts | 127° |
| 2026-05-04 22:36 | 24.87532 | 55.79889 | 16042 ft | 426 kts | 127° |
| 2026-05-04 22:37 | 24.85785 | 55.82502 | 16493 ft | 430 kts | 127° |
| 2026-05-04 22:37 | 24.84013 | 55.85176 | 16990 ft | 432 kts | 127° |
| 2026-05-04 22:37 | 24.82219 | 55.87856 | 17476 ft | 435 kts | 127° |
| 2026-05-04 22:37 | 24.80416 | 55.90523 | 17931 ft | 438 kts | 127° |
| 2026-05-04 22:38 | 24.78579 | 55.93235 | 18361 ft | 441 kts | 128° |
| 2026-05-04 22:38 | 24.76577 | 55.95800 | 18740 ft | 443 kts | 136° |
| 2026-05-04 22:38 | 24.74281 | 55.98093 | 19124 ft | 446 kts | 140° |
| 2026-05-04 22:38 | 24.71955 | 56.00311 | 19565 ft | 448 kts | 140° |
| 2026-05-04 22:39 | 24.69618 | 56.02636 | 20005 ft | 451 kts | 139° |
| 2026-05-04 22:39 | 24.67340 | 56.04971 | 20405 ft | 454 kts | 138° |
| 2026-05-04 22:39 | 24.65020 | 56.07361 | 20817 ft | 456 kts | 138° |
| 2026-05-04 22:39 | 24.62682 | 56.09762 | 21240 ft | 459 kts | 138° |
| 2026-05-04 22:40 | 24.60363 | 56.12136 | 21648 ft | 462 kts | 138° |
| 2026-05-04 22:40 | 24.58001 | 56.14562 | 22049 ft | 465 kts | 137° |
| 2026-05-04 22:40 | 24.55725 | 56.17117 | 22429 ft | 469 kts | 133° |
| 2026-05-04 22:40 | 24.53613 | 56.19811 | 22785 ft | 472 kts | 131° |
| 2026-05-04 22:41 | 24.51479 | 56.22584 | 23152 ft | 475 kts | 131° |
| 2026-05-04 22:41 | 24.49338 | 56.25363 | 23495 ft | 478 kts | 131° |
| 2026-05-04 22:41 | 24.47175 | 56.28151 | 23789 ft | 480 kts | 132° |
| 2026-05-04 22:41 | 24.44995 | 56.30940 | 24082 ft | 482 kts | 132° |
| 2026-05-04 22:42 | 24.42821 | 56.33708 | 24323 ft | 485 kts | 132° |
| 2026-05-04 22:42 | 24.40598 | 56.36530 | 24586 ft | 488 kts | 132° |
| 2026-05-04 22:42 | 24.38363 | 56.39365 | 24847 ft | 490 kts | 132° |
| 2026-05-04 22:42 | 24.36140 | 56.42185 | 25116 ft | 492 kts | 132° |
| 2026-05-04 22:43 | 24.33910 | 56.45014 | 25384 ft | 495 kts | 132° |
| 2026-05-04 22:43 | 24.31639 | 56.47894 | 25649 ft | 497 kts | 133° |
| 2026-05-04 22:43 | 24.29388 | 56.50813 | 25918 ft | 500 kts | 129° |
| 2026-05-04 22:43 | 24.27329 | 56.53858 | 26176 ft | 503 kts | 127° |
| 2026-05-04 22:44 | 24.25960 | 56.55941 | 26340 ft | 505 kts | 127° |
| 2026-05-04 22:44 | 24.23908 | 56.59073 | 26596 ft | 507 kts | 127° |
| 2026-05-04 22:44 | 24.21152 | 56.63267 | 26906 ft | 511 kts | 127° |
| 2026-05-04 22:44 | 24.19762 | 56.65371 | 27070 ft | 513 kts | 127° |
| 2026-05-04 22:45 | 24.16971 | 56.69579 | 27436 ft | 515 kts | 128° |
| 2026-05-04 22:45 | 24.13436 | 56.74891 | 27839 ft | 519 kts | 128° |
| 2026-05-04 22:45 | 24.11305 | 56.78089 | 28061 ft | 521 kts | 128° |
| 2026-05-04 22:46 | 24.09157 | 56.81312 | 28286 ft | 523 kts | 128° |
| 2026-05-04 22:46 | 24.07007 | 56.84538 | 28484 ft | 525 kts | 128° |
| 2026-05-04 22:46 | 24.04877 | 56.87733 | 28667 ft | 527 kts | 128° |
| 2026-05-04 22:46 | 24.02699 | 56.90991 | 28722 ft | 529 kts | 128° |
| 2026-05-04 22:47 | 23.98366 | 56.97435 | 28753 ft | 525 kts | 128° |
| 2026-05-04 22:47 | 23.94030 | 57.03874 | 28765 ft | 524 kts | 128° |
| 2026-05-04 22:48 | 23.89723 | 57.10269 | 28764 ft | 524 kts | 128° |
| 2026-05-04 22:48 | 23.85389 | 57.16709 | 28738 ft | 524 kts | 128° |
| 2026-05-04 22:49 | 23.81084 | 57.23111 | 28769 ft | 524 kts | 128° |
| 2026-05-04 22:49 | 23.76780 | 57.29505 | 28752 ft | 524 kts | 128° |
| 2026-05-04 22:50 | 23.72445 | 57.35934 | 28765 ft | 524 kts | 128° |
| 2026-05-04 22:50 | 23.68011 | 57.42223 | 28751 ft | 524 kts | 130° |
| 2026-05-04 22:51 | 23.63450 | 57.48411 | 28775 ft | 524 kts | 130° |
| 2026-05-04 22:51 | 23.58912 | 57.54617 | 28758 ft | 524 kts | 130° |
| 2026-05-04 22:52 | 23.54369 | 57.60875 | 28772 ft | 525 kts | 130° |
| 2026-05-04 22:52 | 23.49867 | 57.67070 | 28796 ft | 525 kts | 130° |
| 2026-05-04 22:53 | 23.45313 | 57.73305 | 28785 ft | 525 kts | 130° |
| 2026-05-04 22:53 | 23.40741 | 57.79533 | 28807 ft | 526 kts | 130° |
| 2026-05-04 22:54 | 23.36195 | 57.85725 | 28794 ft | 526 kts | 130° |
| 2026-05-04 22:54 | 23.31640 | 57.91926 | 28802 ft | 525 kts | 130° |
| 2026-05-04 22:55 | 23.27059 | 57.98158 | 28784 ft | 526 kts | 130° |
| 2026-05-04 22:55 | 23.22651 | 58.04473 | 28792 ft | 526 kts | 126° |
| 2026-05-04 22:56 | 23.18555 | 58.11036 | 28785 ft | 526 kts | 125° |
| 2026-05-04 22:56 | 23.14440 | 58.17614 | 28796 ft | 526 kts | 125° |
| 2026-05-04 22:57 | 23.10293 | 58.24182 | 28780 ft | 527 kts | 126° |
| 2026-05-04 22:57 | 23.06126 | 58.30766 | 28800 ft | 527 kts | 126° |
| 2026-05-04 22:58 | 23.01650 | 58.36723 | 28786 ft | 524 kts | 138° |
| 2026-05-04 22:58 | 22.96006 | 58.41610 | 28793 ft | 520 kts | 150° |
| 2026-05-04 22:59 | 22.89795 | 58.45624 | 28806 ft | 519 kts | 152° |
| 2026-05-04 22:59 | 22.83567 | 58.49673 | 28794 ft | 520 kts | 151° |
| 2026-05-04 23:00 | 22.77423 | 58.53735 | 28799 ft | 519 kts | 150° |
| 2026-05-04 23:00 | 22.71265 | 58.57816 | 28806 ft | 520 kts | 150° |
| 2026-05-04 23:01 | 22.65106 | 58.61883 | 28804 ft | 520 kts | 150° |
| 2026-05-04 23:01 | 22.58906 | 58.65973 | 28799 ft | 520 kts | 150° |
| 2026-05-04 23:02 | 22.52753 | 58.70030 | 28798 ft | 520 kts | 150° |
| 2026-05-04 23:02 | 22.46580 | 58.74097 | 28798 ft | 520 kts | 150° |
| 2026-05-04 23:03 | 22.40407 | 58.78161 | 28799 ft | 519 kts | 150° |
| 2026-05-04 23:03 | 22.34218 | 58.82231 | 28800 ft | 519 kts | 150° |
| 2026-05-04 23:04 | 22.28047 | 58.86288 | 28802 ft | 519 kts | 149° |
| 2026-05-04 23:04 | 22.22337 | 58.91036 | 28800 ft | 521 kts | 138° |
| 2026-05-04 23:05 | 22.17456 | 58.96790 | 28805 ft | 522 kts | 130° |
| 2026-05-04 23:05 | 22.12839 | 59.02885 | 28791 ft | 523 kts | 130° |
| 2026-05-04 23:06 | 22.08216 | 59.08933 | 28789 ft | 523 kts | 130° |
| 2026-05-04 23:06 | 22.03568 | 59.14952 | 28776 ft | 523 kts | 130° |
| 2026-05-04 23:07 | 21.98890 | 59.20987 | 28778 ft | 523 kts | 130° |
| 2026-05-04 23:07 | 21.94235 | 59.26987 | 28775 ft | 523 kts | 130° |
| 2026-05-04 23:08 | 21.89588 | 59.32974 | 28779 ft | 523 kts | 130° |
| 2026-05-04 23:08 | 21.84908 | 59.38997 | 28763 ft | 523 kts | 130° |
| 2026-05-04 23:09 | 21.80252 | 59.44983 | 28764 ft | 523 kts | 130° |
| 2026-05-04 23:09 | 21.75607 | 59.50948 | 28759 ft | 522 kts | 130° |
| 2026-05-04 23:10 | 21.70926 | 59.56952 | 28758 ft | 522 kts | 130° |
| 2026-05-04 23:10 | 21.66261 | 59.62931 | 28758 ft | 522 kts | 130° |
| 2026-05-04 23:11 | 21.61581 | 59.68922 | 28759 ft | 522 kts | 130° |
| 2026-05-04 23:11 | 21.56922 | 59.74881 | 28759 ft | 523 kts | 130° |
| 2026-05-04 23:12 | 21.52217 | 59.80877 | 28759 ft | 523 kts | 130° |
| 2026-05-04 23:12 | 21.47532 | 59.86818 | 28758 ft | 523 kts | 130° |
| 2026-05-04 23:13 | 21.42837 | 59.92769 | 28759 ft | 523 kts | 130° |
| 2026-05-04 23:13 | 21.38146 | 59.98712 | 28757 ft | 523 kts | 130° |
| 2026-05-04 23:14 | 21.33423 | 60.04693 | 28759 ft | 523 kts | 130° |
| 2026-05-04 23:14 | 21.28729 | 60.10629 | 28761 ft | 523 kts | 130° |
| 2026-05-04 23:15 | 21.24033 | 60.16561 | 28762 ft | 523 kts | 130° |
| 2026-05-04 23:15 | 21.19314 | 60.22528 | 28762 ft | 523 kts | 130° |
| 2026-05-04 23:16 | 21.14622 | 60.28466 | 28761 ft | 523 kts | 130° |
| 2026-05-04 23:16 | 21.09900 | 60.34436 | 28767 ft | 523 kts | 130° |
| 2026-05-04 23:17 | 21.05205 | 60.40365 | 28769 ft | 523 kts | 130° |
| 2026-05-04 23:17 | 21.00506 | 60.46290 | 28776 ft | 523 kts | 130° |
| 2026-05-04 23:18 | 20.95802 | 60.52216 | 28768 ft | 523 kts | 130° |
| 2026-05-04 23:18 | 20.91067 | 60.58175 | 28776 ft | 523 kts | 130° |
| 2026-05-04 23:19 | 20.86373 | 60.64077 | 28775 ft | 523 kts | 130° |
| 2026-05-04 23:19 | 20.81664 | 60.69990 | 28775 ft | 523 kts | 130° |
| 2026-05-04 23:20 | 20.76923 | 60.75939 | 28782 ft | 523 kts | 130° |
| 2026-05-04 23:20 | 20.72214 | 60.81841 | 28769 ft | 523 kts | 130° |
| 2026-05-04 23:21 | 20.67508 | 60.87734 | 28779 ft | 524 kts | 130° |
| 2026-05-04 23:21 | 20.62767 | 60.93673 | 28782 ft | 524 kts | 129° |
| 2026-05-04 23:22 | 20.58589 | 60.99997 | 28788 ft | 523 kts | 122° |
| 2026-05-04 23:22 | 20.54720 | 61.06599 | 28784 ft | 524 kts | 122° |
| 2026-05-04 23:23 | 20.50840 | 61.13175 | 28783 ft | 524 kts | 122° |
| 2026-05-04 23:23 | 20.46915 | 61.19757 | 28777 ft | 524 kts | 122° |
| 2026-05-04 23:24 | 20.42999 | 61.26290 | 28788 ft | 524 kts | 122° |
| 2026-05-04 23:24 | 20.39075 | 61.32830 | 28787 ft | 525 kts | 122° |
| 2026-05-04 23:25 | 20.35130 | 61.39399 | 28792 ft | 525 kts | 122° |
| 2026-05-04 23:25 | 20.31205 | 61.45932 | 28792 ft | 525 kts | 122° |
| 2026-05-04 23:26 | 20.27281 | 61.52456 | 28791 ft | 525 kts | 122° |
| 2026-05-04 23:26 | 20.23327 | 61.59022 | 28792 ft | 524 kts | 122° |
| 2026-05-04 23:27 | 20.19403 | 61.65529 | 28794 ft | 524 kts | 122° |
| 2026-05-04 23:27 | 20.15442 | 61.72092 | 28795 ft | 524 kts | 122° |
| 2026-05-04 23:28 | 20.11511 | 61.78598 | 28797 ft | 524 kts | 122° |
| 2026-05-04 23:28 | 20.07551 | 61.85145 | 28798 ft | 525 kts | 122° |
| 2026-05-04 23:29 | 20.03617 | 61.91641 | 28795 ft | 525 kts | 122° |
| 2026-05-04 23:29 | 19.99665 | 61.98159 | 28800 ft | 524 kts | 122° |
| 2026-05-04 23:30 | 19.95703 | 62.04687 | 28801 ft | 524 kts | 122° |
| 2026-05-04 23:30 | 19.91764 | 62.11169 | 28803 ft | 523 kts | 122° |
| 2026-05-04 23:31 | 19.87829 | 62.17638 | 28801 ft | 523 kts | 122° |
| 2026-05-04 23:31 | 19.83861 | 62.24154 | 28807 ft | 523 kts | 122° |
| 2026-05-04 23:32 | 19.79924 | 62.30614 | 28802 ft | 523 kts | 122° |
| 2026-05-04 23:32 | 19.75952 | 62.37123 | 28803 ft | 523 kts | 122° |
| 2026-05-04 23:33 | 19.72001 | 62.43589 | 28806 ft | 523 kts | 122° |
| 2026-05-04 23:33 | 19.68028 | 62.50086 | 28805 ft | 523 kts | 122° |
| 2026-05-04 23:34 | 19.64075 | 62.56542 | 28808 ft | 523 kts | 122° |
| 2026-05-04 23:34 | 19.60117 | 62.62999 | 28805 ft | 523 kts | 123° |
| 2026-05-04 23:35 | 19.56119 | 62.69516 | 29068 ft | 526 kts | 123° |
| 2026-05-04 23:35 | 19.54797 | 62.71669 | 29288 ft | 525 kts | 123° |
| 2026-05-04 23:35 | 19.52822 | 62.74884 | 29605 ft | 524 kts | 123° |
| 2026-05-04 23:36 | 19.50826 | 62.78131 | 29892 ft | 523 kts | 123° |
| 2026-05-04 23:36 | 19.48833 | 62.81373 | 30137 ft | 523 kts | 123° |
| 2026-05-04 23:36 | 19.46869 | 62.84565 | 30378 ft | 522 kts | 123° |
| 2026-05-04 23:36 | 19.44229 | 62.88854 | 30693 ft | 521 kts | 123° |
| 2026-05-04 23:37 | 19.40910 | 62.94240 | 30765 ft | 523 kts | 123° |
| 2026-05-04 23:37 | 19.36927 | 63.00698 | 30803 ft | 521 kts | 123° |
| 2026-05-04 23:38 | 19.32977 | 63.07097 | 30803 ft | 520 kts | 123° |
| 2026-05-04 23:38 | 19.29032 | 63.13480 | 30809 ft | 518 kts | 123° |
| 2026-05-04 23:39 | 19.25074 | 63.19878 | 30805 ft | 518 kts | 123° |
| 2026-05-04 23:39 | 19.21141 | 63.26227 | 30809 ft | 518 kts | 123° |
| 2026-05-04 23:40 | 19.17175 | 63.32625 | 30811 ft | 519 kts | 123° |
| 2026-05-04 23:40 | 19.13229 | 63.38985 | 30815 ft | 519 kts | 123° |
| 2026-05-04 23:41 | 19.09254 | 63.45383 | 30816 ft | 520 kts | 123° |
| 2026-05-04 23:41 | 19.05276 | 63.51782 | 30814 ft | 520 kts | 123° |
| 2026-05-04 23:42 | 19.01299 | 63.58173 | 30815 ft | 519 kts | 123° |
| 2026-05-04 23:42 | 18.97334 | 63.64535 | 30816 ft | 519 kts | 123° |
| 2026-05-04 23:43 | 18.93378 | 63.70874 | 30813 ft | 518 kts | 123° |
| 2026-05-04 23:43 | 18.89420 | 63.77214 | 30822 ft | 518 kts | 123° |
| 2026-05-04 23:44 | 18.85437 | 63.83591 | 30821 ft | 517 kts | 123° |
| 2026-05-04 23:44 | 18.81493 | 63.89898 | 30819 ft | 517 kts | 123° |
| 2026-05-04 23:45 | 18.77519 | 63.96245 | 30821 ft | 516 kts | 123° |
| 2026-05-04 23:45 | 18.73577 | 64.02537 | 30822 ft | 516 kts | 123° |
| 2026-05-04 23:46 | 18.69628 | 64.08832 | 30821 ft | 515 kts | 123° |
| 2026-05-04 23:46 | 18.65658 | 64.15155 | 30823 ft | 515 kts | 123° |
| 2026-05-04 23:47 | 18.61706 | 64.21441 | 30826 ft | 515 kts | 123° |
| 2026-05-04 23:47 | 18.57749 | 64.27731 | 30824 ft | 515 kts | 123° |
| 2026-05-04 23:48 | 18.53794 | 64.34011 | 30829 ft | 515 kts | 123° |
| 2026-05-04 23:48 | 18.49819 | 64.40317 | 30828 ft | 515 kts | 123° |
| 2026-05-04 23:49 | 18.45868 | 64.46577 | 30827 ft | 515 kts | 123° |
| 2026-05-04 23:49 | 18.41882 | 64.52888 | 30830 ft | 515 kts | 123° |
| 2026-05-04 23:50 | 18.37921 | 64.59153 | 30830 ft | 515 kts | 123° |
| 2026-05-04 23:50 | 18.33955 | 64.65419 | 30831 ft | 515 kts | 123° |
| 2026-05-04 23:51 | 18.29968 | 64.71713 | 30831 ft | 515 kts | 123° |
| 2026-05-04 23:51 | 18.26005 | 64.77963 | 30834 ft | 514 kts | 123° |
| 2026-05-04 23:52 | 18.22043 | 64.84206 | 30833 ft | 514 kts | 123° |
| 2026-05-04 23:52 | 18.18060 | 64.90474 | 30833 ft | 514 kts | 123° |
| 2026-05-04 23:53 | 18.14105 | 64.96694 | 30833 ft | 513 kts | 123° |
| 2026-05-04 23:53 | 18.10115 | 65.02962 | 30831 ft | 514 kts | 123° |
| 2026-05-04 23:54 | 18.06156 | 65.09175 | 30837 ft | 513 kts | 123° |
| 2026-05-04 23:54 | 18.02168 | 65.15427 | 30833 ft | 513 kts | 123° |
| 2026-05-04 23:55 | 17.98206 | 65.21635 | 30832 ft | 513 kts | 123° |
| 2026-05-04 23:56 | 17.92246 | 65.30960 | 30839 ft | 513 kts | 123° |
| 2026-05-04 23:56 | 17.88250 | 65.37204 | 30839 ft | 513 kts | 123° |
| 2026-05-04 23:57 | 17.84274 | 65.43412 | 30841 ft | 514 kts | 123° |
| 2026-05-04 23:57 | 17.80277 | 65.49647 | 30842 ft | 514 kts | 123° |
| 2026-05-04 23:58 | 17.76307 | 65.55835 | 30842 ft | 513 kts | 123° |
| 2026-05-04 23:58 | 17.72313 | 65.62054 | 30845 ft | 513 kts | 123° |
| 2026-05-04 23:59 | 17.68333 | 65.68244 | 30843 ft | 513 kts | 123° |
| 2026-05-04 23:59 | 17.64356 | 65.74428 | 30846 ft | 513 kts | 123° |
| 2026-05-05 00:00 | 17.60357 | 65.80666 | 30843 ft | 513 kts | 123° |
| 2026-05-05 00:00 | 17.56487 | 65.86929 | 30847 ft | 513 kts | 122° |
| 2026-05-05 00:01 | 17.52646 | 65.93210 | 30856 ft | 513 kts | 122° |
| 2026-05-05 00:01 | 17.48789 | 65.99486 | 30847 ft | 513 kts | 122° |
| 2026-05-05 00:02 | 17.44900 | 66.05783 | 30845 ft | 513 kts | 122° |
| 2026-05-05 00:02 | 17.41015 | 66.12060 | 30847 ft | 513 kts | 122° |
| 2026-05-05 00:03 | 17.37156 | 66.18291 | 30847 ft | 512 kts | 122° |
| 2026-05-05 00:03 | 17.33267 | 66.24567 | 30851 ft | 512 kts | 122° |
| 2026-05-05 00:04 | 17.29398 | 66.30804 | 30852 ft | 512 kts | 122° |
| 2026-05-05 00:04 | 17.25533 | 66.37030 | 30853 ft | 512 kts | 122° |
| 2026-05-05 00:05 | 17.21648 | 66.43281 | 30852 ft | 513 kts | 122° |
| 2026-05-05 00:05 | 17.17737 | 66.49570 | 30852 ft | 513 kts | 122° |
| 2026-05-05 00:06 | 17.13858 | 66.55800 | 30852 ft | 513 kts | 122° |
| 2026-05-05 00:06 | 17.09964 | 66.62048 | 30851 ft | 514 kts | 122° |
| 2026-05-05 00:07 | 17.06047 | 66.68330 | 30844 ft | 514 kts | 122° |
| 2026-05-05 00:07 | 17.02148 | 66.74575 | 30845 ft | 513 kts | 122° |
| 2026-05-05 00:08 | 16.98257 | 66.80801 | 30851 ft | 513 kts | 122° |
| 2026-05-05 00:08 | 16.94350 | 66.87048 | 30848 ft | 512 kts | 122° |
| 2026-05-05 00:09 | 16.90469 | 66.93249 | 30848 ft | 512 kts | 122° |
| 2026-05-05 00:09 | 16.86583 | 66.99452 | 30849 ft | 511 kts | 122° |
| 2026-05-05 00:10 | 16.82675 | 67.05684 | 30847 ft | 511 kts | 122° |
| 2026-05-05 00:10 | 16.78789 | 67.11875 | 30850 ft | 511 kts | 122° |
| 2026-05-05 00:11 | 16.74898 | 67.18069 | 30848 ft | 511 kts | 122° |
| 2026-05-05 00:11 | 16.71012 | 67.24250 | 30847 ft | 510 kts | 122° |
| 2026-05-05 00:12 | 16.67119 | 67.30436 | 30845 ft | 510 kts | 122° |
| 2026-05-05 00:12 | 16.63225 | 67.36619 | 30848 ft | 510 kts | 122° |
| 2026-05-05 00:13 | 16.59307 | 67.42833 | 30845 ft | 510 kts | 122° |
| 2026-05-05 00:13 | 16.55411 | 67.49009 | 30848 ft | 510 kts | 122° |
| 2026-05-05 00:14 | 16.51516 | 67.55176 | 30848 ft | 511 kts | 122° |
| 2026-05-05 00:14 | 16.47595 | 67.61381 | 30843 ft | 511 kts | 122° |
| 2026-05-05 00:15 | 16.43697 | 67.67544 | 30847 ft | 511 kts | 122° |
| 2026-05-05 00:15 | 16.39775 | 67.73737 | 30850 ft | 510 kts | 122° |
| 2026-05-05 00:16 | 16.35879 | 67.79887 | 30848 ft | 510 kts | 123° |
| 2026-05-05 00:16 | 16.31970 | 67.86051 | 30849 ft | 510 kts | 122° |
| 2026-05-05 00:17 | 16.28056 | 67.92219 | 30848 ft | 510 kts | 123° |
| 2026-05-05 00:17 | 16.24132 | 67.98417 | 30850 ft | 510 kts | 122° |
| 2026-05-05 00:18 | 16.20265 | 68.04569 | 30845 ft | 510 kts | 123° |
| 2026-05-05 00:18 | 16.16389 | 68.10737 | 30850 ft | 510 kts | 122° |
| 2026-05-05 00:19 | 16.12478 | 68.16949 | 30849 ft | 510 kts | 123° |
| 2026-05-05 00:19 | 16.08599 | 68.23102 | 30849 ft | 510 kts | 123° |
| 2026-05-05 00:20 | 16.04714 | 68.29257 | 30849 ft | 510 kts | 123° |
| 2026-05-05 00:20 | 16.00809 | 68.35439 | 30847 ft | 510 kts | 123° |
| 2026-05-05 00:21 | 15.96926 | 68.41581 | 30851 ft | 510 kts | 123° |
| 2026-05-05 00:21 | 15.93030 | 68.47739 | 30849 ft | 510 kts | 123° |
| 2026-05-05 00:22 | 15.89114 | 68.53924 | 30850 ft | 510 kts | 123° |
| 2026-05-05 00:22 | 15.85225 | 68.60061 | 30846 ft | 509 kts | 123° |
| 2026-05-05 00:23 | 15.81340 | 68.66187 | 30848 ft | 509 kts | 123° |
| 2026-05-05 00:23 | 15.77452 | 68.72310 | 30850 ft | 509 kts | 123° |
| 2026-05-05 00:24 | 15.74207 | 68.77419 | 30849 ft | 509 kts | 123° |
| 2026-05-05 00:24 | 15.70301 | 68.83563 | 30854 ft | 509 kts | 123° |
| 2026-05-05 00:25 | 15.66397 | 68.89699 | 30846 ft | 510 kts | 123° |
| 2026-05-05 00:25 | 15.62499 | 68.95820 | 30854 ft | 509 kts | 123° |
| 2026-05-05 00:26 | 15.58586 | 69.01960 | 30840 ft | 508 kts | 123° |
| 2026-05-05 00:26 | 15.54709 | 69.08039 | 30850 ft | 505 kts | 123° |
| 2026-05-05 00:27 | 15.50844 | 69.14093 | 30847 ft | 504 kts | 123° |
| 2026-05-05 00:27 | 15.46957 | 69.20179 | 30857 ft | 504 kts | 123° |
| 2026-05-05 00:28 | 15.43082 | 69.26239 | 30848 ft | 505 kts | 123° |
| 2026-05-05 00:28 | 15.39209 | 69.32292 | 30857 ft | 506 kts | 123° |
| 2026-05-05 00:29 | 15.35325 | 69.38357 | 30851 ft | 507 kts | 123° |
| 2026-05-05 00:29 | 15.31409 | 69.44468 | 30850 ft | 506 kts | 123° |
| 2026-05-05 00:30 | 15.27520 | 69.50532 | 30848 ft | 505 kts | 123° |
| 2026-05-05 00:30 | 15.23642 | 69.56574 | 30857 ft | 504 kts | 123° |
| 2026-05-05 00:31 | 15.19778 | 69.62589 | 30850 ft | 504 kts | 122° |
| 2026-05-05 00:31 | 15.15881 | 69.68654 | 30859 ft | 503 kts | 123° |
| 2026-05-05 00:32 | 15.12013 | 69.74666 | 30852 ft | 504 kts | 123° |
| 2026-05-05 00:32 | 15.08150 | 69.80716 | 30860 ft | 504 kts | 123° |
| 2026-05-05 00:33 | 15.04303 | 69.86786 | 30854 ft | 505 kts | 122° |
| 2026-05-05 00:33 | 15.00445 | 69.92869 | 30857 ft | 504 kts | 123° |
| 2026-05-05 00:34 | 14.96580 | 69.98949 | 30854 ft | 504 kts | 122° |
| 2026-05-05 00:34 | 14.92745 | 70.04973 | 30859 ft | 504 kts | 123° |
| 2026-05-05 00:35 | 14.88898 | 70.11012 | 30851 ft | 504 kts | 122° |
| 2026-05-05 00:35 | 14.85054 | 70.17042 | 30860 ft | 503 kts | 123° |
| 2026-05-05 00:36 | 14.81189 | 70.23100 | 30857 ft | 504 kts | 122° |
| 2026-05-05 00:36 | 14.77347 | 70.29118 | 30860 ft | 504 kts | 123° |
| 2026-05-05 00:37 | 14.73478 | 70.35173 | 30858 ft | 503 kts | 122° |
| 2026-05-05 00:37 | 14.69626 | 70.41197 | 30859 ft | 503 kts | 123° |
| 2026-05-05 00:38 | 14.65766 | 70.47230 | 30860 ft | 502 kts | 122° |
| 2026-05-05 00:38 | 14.61936 | 70.53210 | 30866 ft | 501 kts | 123° |
| 2026-05-05 00:39 | 14.58147 | 70.59123 | 30862 ft | 501 kts | 123° |
| 2026-05-05 00:39 | 14.54307 | 70.65110 | 30864 ft | 501 kts | 123° |
| 2026-05-05 00:40 | 14.50478 | 70.71076 | 30863 ft | 501 kts | 123° |
| 2026-05-05 00:40 | 14.46611 | 70.77098 | 30870 ft | 501 kts | 123° |
| 2026-05-05 00:41 | 14.42755 | 70.83098 | 30866 ft | 501 kts | 123° |
| 2026-05-05 00:41 | 14.38912 | 70.89074 | 30870 ft | 501 kts | 123° |
| 2026-05-05 00:42 | 14.35047 | 70.95079 | 30863 ft | 501 kts | 123° |
| 2026-05-05 00:42 | 14.31239 | 71.01071 | 30866 ft | 501 kts | 122° |
| 2026-05-05 00:43 | 14.27462 | 71.07071 | 30867 ft | 501 kts | 122° |
| 2026-05-05 00:43 | 14.23674 | 71.13080 | 30862 ft | 500 kts | 123° |
| 2026-05-05 00:44 | 14.19863 | 71.19109 | 30863 ft | 500 kts | 122° |
| 2026-05-05 00:44 | 14.16074 | 71.25094 | 30871 ft | 500 kts | 122° |
| 2026-05-05 00:45 | 14.12255 | 71.31121 | 30863 ft | 500 kts | 122° |
| 2026-05-05 00:45 | 14.08469 | 71.37095 | 30869 ft | 499 kts | 122° |
| 2026-05-05 00:46 | 14.04666 | 71.43090 | 30866 ft | 499 kts | 122° |
| 2026-05-05 00:46 | 14.00883 | 71.49049 | 30861 ft | 499 kts | 122° |
| 2026-05-05 00:47 | 13.97100 | 71.55005 | 30864 ft | 498 kts | 122° |
| 2026-05-05 00:47 | 13.93284 | 71.61009 | 30863 ft | 499 kts | 122° |
| 2026-05-05 00:48 | 13.89488 | 71.66975 | 30866 ft | 500 kts | 122° |
| 2026-05-05 00:48 | 13.85688 | 71.72944 | 30866 ft | 500 kts | 122° |
| 2026-05-05 00:49 | 13.81861 | 71.78954 | 30871 ft | 501 kts | 123° |
| 2026-05-05 00:49 | 13.78042 | 71.84945 | 30867 ft | 502 kts | 123° |
| 2026-05-05 00:50 | 13.74225 | 71.90930 | 30868 ft | 503 kts | 122° |
| 2026-05-05 00:50 | 13.70366 | 71.96976 | 30865 ft | 503 kts | 123° |
| 2026-05-05 00:51 | 13.66312 | 72.02820 | 30866 ft | 503 kts | 128° |
| 2026-05-05 00:51 | 13.61875 | 72.08383 | 30860 ft | 504 kts | 129° |
| 2026-05-05 00:52 | 13.57425 | 72.13937 | 30873 ft | 504 kts | 129° |
| 2026-05-05 00:52 | 13.52977 | 72.19534 | 30865 ft | 503 kts | 129° |
| 2026-05-05 00:53 | 13.48582 | 72.25090 | 30867 ft | 503 kts | 129° |
| 2026-05-05 00:53 | 13.44156 | 72.30686 | 30863 ft | 503 kts | 129° |
| 2026-05-05 00:54 | 13.39762 | 72.36236 | 30859 ft | 503 kts | 129° |
| 2026-05-05 00:54 | 13.35347 | 72.41806 | 30862 ft | 503 kts | 129° |
| 2026-05-05 00:55 | 13.30906 | 72.47406 | 30865 ft | 504 kts | 129° |
| 2026-05-05 00:55 | 13.26485 | 72.52975 | 30865 ft | 504 kts | 129° |
| 2026-05-05 00:56 | 13.22071 | 72.58535 | 30863 ft | 504 kts | 129° |
| 2026-05-05 00:56 | 13.17648 | 72.64101 | 30859 ft | 504 kts | 129° |
| 2026-05-05 00:57 | 13.13217 | 72.69673 | 30863 ft | 505 kts | 129° |
| 2026-05-05 00:57 | 13.08763 | 72.75270 | 30856 ft | 505 kts | 129° |
| 2026-05-05 00:58 | 13.04311 | 72.80864 | 30869 ft | 505 kts | 129° |
| 2026-05-05 00:58 | 12.99881 | 72.86423 | 30862 ft | 505 kts | 129° |
| 2026-05-05 00:59 | 12.95444 | 72.91991 | 30858 ft | 505 kts | 129° |
| 2026-05-05 00:59 | 12.90988 | 72.97577 | 30864 ft | 505 kts | 129° |
| 2026-05-05 01:00 | 12.86557 | 73.03128 | 30862 ft | 505 kts | 129° |
| 2026-05-05 01:00 | 12.82095 | 73.08715 | 30871 ft | 504 kts | 129° |
| 2026-05-05 01:01 | 12.77671 | 73.14251 | 30873 ft | 504 kts | 130° |
| 2026-05-05 01:01 | 12.73202 | 73.19840 | 30860 ft | 505 kts | 130° |
| 2026-05-05 01:02 | 12.68770 | 73.25381 | 30867 ft | 505 kts | 129° |
| 2026-05-05 01:02 | 12.64327 | 73.30930 | 30860 ft | 505 kts | 130° |
| 2026-05-05 01:03 | 12.59861 | 73.36505 | 30858 ft | 505 kts | 130° |
| 2026-05-05 01:03 | 12.55409 | 73.42058 | 30870 ft | 505 kts | 130° |
| 2026-05-05 01:04 | 12.50967 | 73.47598 | 30864 ft | 505 kts | 130° |
| 2026-05-05 01:04 | 12.44287 | 73.55921 | 30869 ft | 504 kts | 130° |
| 2026-05-05 01:05 | 12.39823 | 73.61477 | 30864 ft | 504 kts | 130° |
| 2026-05-05 01:05 | 12.35388 | 73.66997 | 30866 ft | 504 kts | 130° |
| 2026-05-05 01:06 | 12.30916 | 73.72557 | 30869 ft | 504 kts | 130° |
| 2026-05-05 01:06 | 12.26474 | 73.78076 | 30867 ft | 505 kts | 130° |
| 2026-05-05 01:07 | 12.21997 | 73.83638 | 30871 ft | 504 kts | 130° |
| 2026-05-05 01:07 | 12.17553 | 73.89154 | 30867 ft | 504 kts | 130° |
| 2026-05-05 01:08 | 12.13112 | 73.94663 | 30869 ft | 503 kts | 130° |
| 2026-05-05 01:08 | 12.08643 | 74.00204 | 30869 ft | 503 kts | 130° |
| 2026-05-05 01:09 | 12.04224 | 74.05681 | 30868 ft | 502 kts | 130° |
| 2026-05-05 01:09 | 11.99767 | 74.11200 | 30868 ft | 501 kts | 130° |
| 2026-05-05 01:10 | 11.95341 | 74.16678 | 30868 ft | 500 kts | 130° |
| 2026-05-05 01:10 | 11.90923 | 74.22143 | 30870 ft | 500 kts | 130° |
| 2026-05-05 01:11 | 11.86508 | 74.27602 | 30866 ft | 499 kts | 130° |
| 2026-05-05 01:11 | 11.82093 | 74.33057 | 30865 ft | 499 kts | 130° |
| 2026-05-05 01:12 | 11.77646 | 74.38549 | 30864 ft | 499 kts | 130° |
| 2026-05-05 01:12 | 11.73224 | 74.44007 | 30866 ft | 500 kts | 130° |
| 2026-05-05 01:13 | 11.68805 | 74.49458 | 30866 ft | 500 kts | 130° |
| 2026-05-05 01:13 | 11.64375 | 74.54920 | 30866 ft | 500 kts | 130° |
| 2026-05-05 01:14 | 11.59952 | 74.60371 | 30870 ft | 500 kts | 130° |
| 2026-05-05 01:14 | 11.56255 | 74.64924 | 30871 ft | 500 kts | 130° |
| 2026-05-05 01:15 | 11.51801 | 74.70407 | 30870 ft | 500 kts | 130° |
| 2026-05-05 01:15 | 11.47382 | 74.75844 | 30871 ft | 499 kts | 130° |
| 2026-05-05 01:16 | 11.42962 | 74.81281 | 30869 ft | 499 kts | 130° |
| 2026-05-05 01:16 | 11.38512 | 74.86751 | 30867 ft | 499 kts | 130° |
| 2026-05-05 01:17 | 11.34093 | 74.92179 | 30871 ft | 499 kts | 130° |
| 2026-05-05 01:17 | 11.29674 | 74.97600 | 30867 ft | 499 kts | 130° |
| 2026-05-05 01:18 | 11.25217 | 75.03067 | 30871 ft | 499 kts | 130° |
| 2026-05-05 01:18 | 11.20802 | 75.08480 | 30871 ft | 499 kts | 130° |
| 2026-05-05 01:19 | 11.16377 | 75.13905 | 30870 ft | 499 kts | 130° |
| 2026-05-05 01:19 | 11.11946 | 75.19333 | 30872 ft | 499 kts | 130° |
| 2026-05-05 01:20 | 11.07492 | 75.24786 | 30874 ft | 499 kts | 131° |
| 2026-05-05 01:20 | 11.03062 | 75.30208 | 30874 ft | 499 kts | 130° |
| 2026-05-05 01:21 | 10.98630 | 75.35630 | 30877 ft | 499 kts | 130° |
| 2026-05-05 01:21 | 10.94198 | 75.41048 | 30879 ft | 499 kts | 131° |
| 2026-05-05 01:22 | 10.89742 | 75.46492 | 30871 ft | 498 kts | 130° |
| 2026-05-05 01:22 | 10.85313 | 75.51902 | 30883 ft | 498 kts | 130° |
| 2026-05-05 01:23 | 10.80895 | 75.57294 | 30877 ft | 498 kts | 131° |
| 2026-05-05 01:23 | 10.76448 | 75.62720 | 30876 ft | 498 kts | 131° |
| 2026-05-05 01:24 | 10.72032 | 75.68105 | 30879 ft | 498 kts | 131° |
| 2026-05-05 01:24 | 10.67602 | 75.73504 | 30876 ft | 498 kts | 130° |
| 2026-05-05 01:25 | 10.63150 | 75.78928 | 30882 ft | 498 kts | 130° |
| 2026-05-05 01:25 | 10.58720 | 75.84321 | 30889 ft | 498 kts | 130° |
| 2026-05-05 01:26 | 10.54281 | 75.89723 | 30877 ft | 499 kts | 130° |
| 2026-05-05 01:26 | 10.49819 | 75.95152 | 30882 ft | 499 kts | 130° |
| 2026-05-05 01:27 | 10.45390 | 76.00536 | 30878 ft | 498 kts | 130° |
| 2026-05-05 01:27 | 10.40929 | 76.05957 | 30880 ft | 498 kts | 130° |
| 2026-05-05 01:28 | 10.36502 | 76.11335 | 30886 ft | 498 kts | 130° |
| 2026-05-05 01:28 | 10.32068 | 76.16718 | 30886 ft | 497 kts | 130° |
| 2026-05-05 01:29 | 10.27617 | 76.22119 | 30888 ft | 496 kts | 130° |
| 2026-05-05 01:29 | 10.23209 | 76.27467 | 30887 ft | 494 kts | 130° |
| 2026-05-05 01:30 | 10.18783 | 76.32834 | 30881 ft | 492 kts | 130° |
| 2026-05-05 01:30 | 10.14398 | 76.38147 | 30884 ft | 491 kts | 130° |
| 2026-05-05 01:31 | 10.10002 | 76.43437 | 30883 ft | 490 kts | 130° |
| 2026-05-05 01:31 | 10.05616 | 76.48702 | 30889 ft | 490 kts | 130° |
| 2026-05-05 01:32 | 10.01189 | 76.54018 | 30889 ft | 492 kts | 130° |
| 2026-05-05 01:32 | 9.96773 | 76.59321 | 30901 ft | 494 kts | 130° |
| 2026-05-05 01:33 | 9.92343 | 76.64640 | 30903 ft | 495 kts | 130° |
| 2026-05-05 01:33 | 9.87888 | 76.69987 | 30915 ft | 496 kts | 130° |
| 2026-05-05 01:34 | 9.83415 | 76.75353 | 30911 ft | 497 kts | 130° |
| 2026-05-05 01:34 | 9.78968 | 76.80685 | 30926 ft | 496 kts | 130° |
| 2026-05-05 01:35 | 9.74513 | 76.86025 | 30925 ft | 496 kts | 130° |
| 2026-05-05 01:35 | 9.70061 | 76.91359 | 30919 ft | 494 kts | 131° |
| 2026-05-05 01:36 | 9.65648 | 76.96643 | 30936 ft | 493 kts | 131° |
| 2026-05-05 01:36 | 9.61237 | 77.01923 | 30936 ft | 492 kts | 131° |
| 2026-05-05 01:37 | 9.56812 | 77.07216 | 30927 ft | 491 kts | 131° |
| 2026-05-05 01:37 | 9.52403 | 77.12488 | 30937 ft | 491 kts | 131° |
| 2026-05-05 01:38 | 9.47967 | 77.17790 | 30939 ft | 491 kts | 131° |
| 2026-05-05 01:38 | 9.43581 | 77.23031 | 30914 ft | 491 kts | 131° |
| 2026-05-05 01:39 | 9.39137 | 77.28339 | 30919 ft | 493 kts | 131° |
| 2026-05-05 01:39 | 9.34688 | 77.33650 | 30923 ft | 494 kts | 131° |
| 2026-05-05 01:40 | 9.30240 | 77.38959 | 30897 ft | 497 kts | 131° |
| 2026-05-05 01:40 | 9.25781 | 77.44277 | 30901 ft | 497 kts | 131° |
| 2026-05-05 01:41 | 9.21325 | 77.49592 | 30901 ft | 495 kts | 131° |
| 2026-05-05 01:41 | 9.16862 | 77.54911 | 30868 ft | 493 kts | 131° |
| 2026-05-05 01:42 | 9.12453 | 77.60166 | 30866 ft | 491 kts | 131° |
| 2026-05-05 01:42 | 9.08029 | 77.65439 | 30870 ft | 490 kts | 131° |
| 2026-05-05 01:43 | 9.03636 | 77.70675 | 30864 ft | 490 kts | 131° |
| 2026-05-05 01:43 | 8.99207 | 77.75951 | 30868 ft | 490 kts | 131° |
| 2026-05-05 01:44 | 8.94791 | 77.81209 | 30868 ft | 491 kts | 131° |
| 2026-05-05 01:44 | 8.90374 | 77.86467 | 30874 ft | 492 kts | 131° |
| 2026-05-05 01:45 | 8.85949 | 77.91731 | 30879 ft | 493 kts | 131° |
| 2026-05-05 01:45 | 8.81511 | 77.97010 | 30881 ft | 493 kts | 131° |
| 2026-05-05 01:46 | 8.77076 | 78.02283 | 30889 ft | 493 kts | 131° |
| 2026-05-05 01:46 | 8.72616 | 78.07582 | 30885 ft | 492 kts | 131° |
| 2026-05-05 01:47 | 8.68204 | 78.12823 | 30882 ft | 492 kts | 131° |
| 2026-05-05 01:47 | 8.63753 | 78.18108 | 30881 ft | 491 kts | 131° |
| 2026-05-05 01:48 | 8.59335 | 78.23352 | 30871 ft | 491 kts | 131° |
| 2026-05-05 01:48 | 8.54923 | 78.28586 | 30860 ft | 491 kts | 131° |
| 2026-05-05 01:49 | 8.50485 | 78.33850 | 30853 ft | 491 kts | 131° |
| 2026-05-05 01:49 | 8.46058 | 78.39099 | 30864 ft | 492 kts | 131° |
| 2026-05-05 01:50 | 8.41597 | 78.44386 | 30860 ft | 494 kts | 131° |
| 2026-05-05 01:50 | 8.37153 | 78.49650 | 30865 ft | 495 kts | 131° |
| 2026-05-05 01:51 | 8.32679 | 78.54950 | 30864 ft | 495 kts | 131° |
| 2026-05-05 01:51 | 8.28234 | 78.60212 | 30861 ft | 494 kts | 131° |
| 2026-05-05 01:52 | 8.23666 | 78.65413 | 30861 ft | 493 kts | 133° |
| 2026-05-05 01:52 | 8.19066 | 78.70531 | 30859 ft | 493 kts | 133° |
| 2026-05-05 01:53 | 8.14479 | 78.75654 | 30862 ft | 492 kts | 133° |
| 2026-05-05 01:53 | 8.09881 | 78.80814 | 30861 ft | 492 kts | 133° |
| 2026-05-05 01:54 | 8.05316 | 78.85943 | 30866 ft | 492 kts | 133° |
| 2026-05-05 01:54 | 8.00750 | 78.91070 | 30865 ft | 493 kts | 132° |
| 2026-05-05 01:55 | 7.96143 | 78.96239 | 30866 ft | 494 kts | 133° |
| 2026-05-05 01:55 | 7.91549 | 79.01392 | 30870 ft | 494 kts | 133° |
| 2026-05-05 01:56 | 7.86970 | 79.06526 | 30869 ft | 494 kts | 133° |
| 2026-05-05 01:56 | 7.82399 | 79.11650 | 30866 ft | 494 kts | 132° |
| 2026-05-05 01:57 | 7.77785 | 79.16821 | 30874 ft | 493 kts | 133° |
| 2026-05-05 01:57 | 7.73219 | 79.21937 | 30875 ft | 493 kts | 133° |
| 2026-05-05 01:58 | 7.68623 | 79.27106 | 30875 ft | 493 kts | 132° |
| 2026-05-05 01:58 | 7.64094 | 79.32273 | 30879 ft | 493 kts | 132° |
| 2026-05-05 01:59 | 7.59546 | 79.37472 | 30883 ft | 493 kts | 132° |
| 2026-05-05 01:59 | 7.55024 | 79.42629 | 30879 ft | 493 kts | 132° |
| 2026-05-05 02:00 | 7.50464 | 79.47821 | 30880 ft | 493 kts | 132° |
| 2026-05-05 02:00 | 7.45906 | 79.53008 | 30886 ft | 493 kts | 133° |
| 2026-05-05 02:01 | 7.41370 | 79.58171 | 30885 ft | 493 kts | 132° |
| 2026-05-05 02:01 | 7.36800 | 79.63369 | 30884 ft | 494 kts | 132° |
| 2026-05-05 02:02 | 7.32251 | 79.68542 | 30889 ft | 494 kts | 133° |
| 2026-05-05 02:02 | 7.27702 | 79.73713 | 30883 ft | 494 kts | 133° |
| 2026-05-05 02:03 | 7.23906 | 79.78029 | 30887 ft | 494 kts | 132° |
| 2026-05-05 02:03 | 7.19361 | 79.83193 | 30885 ft | 494 kts | 132° |
| 2026-05-05 02:04 | 7.14730 | 79.88334 | 30888 ft | 493 kts | 135° |
| 2026-05-05 02:04 | 7.09796 | 79.93099 | 30880 ft | 493 kts | 137° |
| 2026-05-05 02:05 | 7.04797 | 79.97797 | 30892 ft | 493 kts | 137° |
| 2026-05-05 02:05 | 6.99796 | 80.02549 | 30891 ft | 494 kts | 137° |
| 2026-05-05 02:06 | 6.94803 | 80.07337 | 30893 ft | 494 kts | 136° |
| 2026-05-05 02:06 | 6.89833 | 80.12111 | 30891 ft | 494 kts | 136° |
| 2026-05-05 02:07 | 6.84871 | 80.16874 | 30904 ft | 494 kts | 136° |
| 2026-05-05 02:07 | 6.79896 | 80.21646 | 30911 ft | 495 kts | 136° |
| 2026-05-05 02:08 | 6.77384 | 80.24055 | 31070 ft | 498 kts | 136° |
| 2026-05-05 02:08 | 6.74911 | 80.26425 | 31390 ft | 495 kts | 136° |
| 2026-05-05 02:08 | 6.72418 | 80.28814 | 31709 ft | 494 kts | 136° |
| 2026-05-05 02:08 | 6.69914 | 80.31214 | 31956 ft | 494 kts | 136° |
| 2026-05-05 02:09 | 6.67420 | 80.33604 | 32228 ft | 493 kts | 136° |
| 2026-05-05 02:09 | 6.64956 | 80.35965 | 32511 ft | 492 kts | 136° |
| 2026-05-05 02:09 | 6.62471 | 80.38345 | 32782 ft | 492 kts | 136° |
| 2026-05-05 02:09 | 6.59988 | 80.40723 | 32843 ft | 493 kts | 136° |
| 2026-05-05 02:10 | 6.55038 | 80.45464 | 32901 ft | 493 kts | 136° |
| 2026-05-05 02:10 | 6.50075 | 80.50216 | 32905 ft | 490 kts | 136° |
| 2026-05-05 02:11 | 6.45161 | 80.54921 | 32905 ft | 488 kts | 136° |
| 2026-05-05 02:11 | 6.40205 | 80.59588 | 32888 ft | 485 kts | 140° |
| 2026-05-05 02:12 | 6.32222 | 80.65780 | 32897 ft | 483 kts | 143° |
| 2026-05-05 02:13 | 6.26905 | 80.69877 | 32884 ft | 484 kts | 142° |
| 2026-05-05 02:13 | 6.21590 | 80.74005 | 32885 ft | 485 kts | 142° |
| 2026-05-05 02:14 | 6.16310 | 80.78111 | 32885 ft | 486 kts | 142° |
| 2026-05-05 02:14 | 6.10981 | 80.82253 | 32872 ft | 487 kts | 142° |
| 2026-05-05 02:15 | 6.05599 | 80.86434 | 32876 ft | 487 kts | 142° |
| 2026-05-05 02:15 | 6.00444 | 80.90816 | 32876 ft | 488 kts | 139° |
| 2026-05-05 02:16 | 5.95332 | 80.95336 | 32877 ft | 487 kts | 139° |
| 2026-05-05 02:16 | 5.90265 | 80.99812 | 32870 ft | 485 kts | 139° |
| 2026-05-05 02:17 | 5.85227 | 81.04241 | 32869 ft | 482 kts | 139° |
| 2026-05-05 02:17 | 5.80168 | 81.08676 | 32861 ft | 481 kts | 139° |
| 2026-05-05 02:18 | 5.75147 | 81.13075 | 32868 ft | 481 kts | 139° |
| 2026-05-05 02:18 | 5.70087 | 81.17508 | 32870 ft | 483 kts | 139° |
| 2026-05-05 02:19 | 5.65035 | 81.21933 | 32873 ft | 484 kts | 139° |
| 2026-05-05 02:19 | 5.59959 | 81.26378 | 32870 ft | 484 kts | 139° |
| 2026-05-05 02:20 | 5.54912 | 81.30798 | 32854 ft | 482 kts | 140° |
| 2026-05-05 02:20 | 5.49848 | 81.35231 | 32863 ft | 482 kts | 140° |
| 2026-05-05 02:21 | 5.44794 | 81.39655 | 32866 ft | 484 kts | 140° |
| 2026-05-05 02:21 | 5.39690 | 81.44119 | 32865 ft | 486 kts | 140° |
| 2026-05-05 02:22 | 5.34601 | 81.48573 | 32867 ft | 487 kts | 140° |
| 2026-05-05 02:22 | 5.29478 | 81.53054 | 32864 ft | 487 kts | 140° |
| 2026-05-05 02:23 | 5.24372 | 81.57518 | 32859 ft | 488 kts | 140° |
| 2026-05-05 02:23 | 5.19260 | 81.61987 | 32868 ft | 489 kts | 140° |
| 2026-05-05 02:24 | 5.14127 | 81.66472 | 32861 ft | 491 kts | 139° |
| 2026-05-05 02:24 | 5.08940 | 81.71005 | 32866 ft | 493 kts | 140° |
| 2026-05-05 02:25 | 5.03761 | 81.75530 | 32868 ft | 496 kts | 139° |
| 2026-05-05 02:25 | 4.98560 | 81.80072 | 32868 ft | 497 kts | 140° |
| 2026-05-05 02:26 | 4.93334 | 81.84636 | 32862 ft | 497 kts | 140° |
| 2026-05-05 02:26 | 4.88142 | 81.89169 | 32867 ft | 496 kts | 139° |
| 2026-05-05 02:27 | 4.82931 | 81.93717 | 32862 ft | 494 kts | 139° |
| 2026-05-05 02:27 | 4.77777 | 81.98215 | 32858 ft | 492 kts | 139° |
| 2026-05-05 02:28 | 4.72608 | 82.02725 | 32862 ft | 490 kts | 139° |
| 2026-05-05 02:28 | 4.67485 | 82.07194 | 32864 ft | 490 kts | 139° |
| 2026-05-05 02:29 | 4.62322 | 82.11697 | 32864 ft | 489 kts | 139° |
| 2026-05-05 02:29 | 4.57209 | 82.16156 | 32864 ft | 490 kts | 139° |
| 2026-05-05 02:30 | 4.52055 | 82.20648 | 32864 ft | 490 kts | 139° |
| 2026-05-05 02:30 | 4.46920 | 82.25123 | 32867 ft | 491 kts | 138° |
| 2026-05-05 02:31 | 4.41738 | 82.29641 | 32869 ft | 491 kts | 138° |
| 2026-05-05 02:31 | 4.36589 | 82.34127 | 32865 ft | 491 kts | 138° |
| 2026-05-05 02:32 | 4.31451 | 82.38603 | 32864 ft | 491 kts | 138° |
| 2026-05-05 02:32 | 4.26271 | 82.43115 | 32860 ft | 492 kts | 139° |
| 2026-05-05 02:33 | 4.21094 | 82.47623 | 32867 ft | 494 kts | 139° |
| 2026-05-05 02:33 | 4.15914 | 82.52133 | 32876 ft | 496 kts | 139° |
| 2026-05-05 02:34 | 4.10718 | 82.56655 | 32864 ft | 497 kts | 139° |
| 2026-05-05 02:34 | 4.05471 | 82.61222 | 32864 ft | 498 kts | 139° |
| 2026-05-05 02:35 | 4.00231 | 82.65782 | 32861 ft | 498 kts | 139° |
| 2026-05-05 02:35 | 3.95023 | 82.70313 | 32865 ft | 498 kts | 139° |
| 2026-05-05 02:36 | 3.89789 | 82.74867 | 32866 ft | 497 kts | 139° |
| 2026-05-05 02:36 | 3.84588 | 82.79390 | 32862 ft | 496 kts | 139° |
| 2026-05-05 02:37 | 3.79384 | 82.83916 | 32868 ft | 496 kts | 139° |
| 2026-05-05 02:37 | 3.74194 | 82.88428 | 32863 ft | 495 kts | 139° |
| 2026-05-05 02:38 | 3.68989 | 82.92954 | 32865 ft | 495 kts | 139° |
| 2026-05-05 02:38 | 3.63803 | 82.97463 | 32862 ft | 495 kts | 139° |
| 2026-05-05 02:39 | 3.58596 | 83.01988 | 32868 ft | 495 kts | 139° |
| 2026-05-05 02:39 | 3.53360 | 83.06421 | 32867 ft | 495 kts | 140° |
| 2026-05-05 02:40 | 3.48037 | 83.10842 | 32873 ft | 495 kts | 140° |
| 2026-05-05 02:40 | 3.42759 | 83.15232 | 32869 ft | 495 kts | 140° |
| 2026-05-05 02:41 | 3.37483 | 83.19639 | 32868 ft | 494 kts | 140° |
| 2026-05-05 02:41 | 3.32194 | 83.24062 | 32868 ft | 494 kts | 140° |
| 2026-05-05 02:42 | 3.26929 | 83.28465 | 32869 ft | 493 kts | 139° |
| 2026-05-05 02:42 | 3.21665 | 83.32866 | 32869 ft | 493 kts | 139° |
| 2026-05-05 02:43 | 3.16381 | 83.37283 | 32870 ft | 493 kts | 140° |
| 2026-05-05 02:43 | 3.11125 | 83.41675 | 32870 ft | 493 kts | 140° |
| 2026-05-05 02:44 | 3.05863 | 83.46073 | 32869 ft | 493 kts | 139° |
| 2026-05-05 02:44 | 3.00618 | 83.50455 | 32873 ft | 493 kts | 140° |
| 2026-05-05 02:45 | 2.95351 | 83.54854 | 32897 ft | 493 kts | 139° |
| 2026-05-05 02:45 | 2.90079 | 83.59258 | 32875 ft | 490 kts | 139° |
| 2026-05-05 02:46 | 2.84877 | 83.63603 | 32866 ft | 488 kts | 139° |
| 2026-05-05 02:46 | 2.79684 | 83.67937 | 32870 ft | 485 kts | 139° |
| 2026-05-05 02:47 | 2.74487 | 83.72278 | 32885 ft | 484 kts | 138° |
| 2026-05-05 02:47 | 2.69323 | 83.76592 | 32870 ft | 485 kts | 139° |
| 2026-05-05 02:48 | 2.64159 | 83.80900 | 32873 ft | 486 kts | 138° |
| 2026-05-05 02:48 | 2.58972 | 83.85231 | 32876 ft | 487 kts | 139° |
| 2026-05-05 02:49 | 2.53736 | 83.89602 | 32881 ft | 489 kts | 139° |
| 2026-05-05 02:49 | 2.48524 | 83.93951 | 32874 ft | 491 kts | 139° |
| 2026-05-05 02:50 | 2.43279 | 83.98329 | 32873 ft | 493 kts | 139° |
| 2026-05-05 02:50 | 2.37991 | 84.02741 | 32894 ft | 494 kts | 138° |
| 2026-05-05 02:51 | 2.32728 | 84.07129 | 32878 ft | 494 kts | 138° |
| 2026-05-05 02:51 | 2.27428 | 84.11551 | 32880 ft | 494 kts | 139° |
| 2026-05-05 02:52 | 2.22173 | 84.15935 | 32877 ft | 492 kts | 139° |
| 2026-05-05 02:52 | 2.16939 | 84.20298 | 32881 ft | 491 kts | 138° |
| 2026-05-05 02:53 | 2.12576 | 84.23937 | 32876 ft | 490 kts | 139° |
| 2026-05-05 02:53 | 2.07337 | 84.28306 | 32881 ft | 489 kts | 138° |
| 2026-05-05 02:54 | 2.02123 | 84.32654 | 32878 ft | 489 kts | 138° |
| 2026-05-05 02:54 | 1.96877 | 84.37028 | 32881 ft | 490 kts | 138° |
| 2026-05-05 02:55 | 1.91656 | 84.41380 | 32901 ft | 491 kts | 138° |
| 2026-05-05 02:55 | 1.86415 | 84.45750 | 32888 ft | 491 kts | 138° |
| 2026-05-05 02:56 | 1.81149 | 84.50138 | 32878 ft | 491 kts | 138° |
| 2026-05-05 02:56 | 1.75932 | 84.54487 | 32878 ft | 490 kts | 138° |
| 2026-05-05 02:57 | 1.70672 | 84.58870 | 32898 ft | 490 kts | 138° |
| 2026-05-05 02:57 | 1.65447 | 84.63224 | 32881 ft | 490 kts | 138° |
| 2026-05-05 02:58 | 1.60239 | 84.67564 | 32886 ft | 489 kts | 138° |
| 2026-05-05 02:58 | 1.55010 | 84.71921 | 32884 ft | 490 kts | 138° |
| 2026-05-05 02:59 | 1.49766 | 84.76291 | 32880 ft | 490 kts | 138° |
| 2026-05-05 02:59 | 1.44547 | 84.80639 | 32881 ft | 490 kts | 138° |
| 2026-05-05 03:00 | 1.39294 | 84.85015 | 32897 ft | 490 kts | 138° |
| 2026-05-05 03:00 | 1.34057 | 84.89377 | 32879 ft | 491 kts | 138° |
| 2026-05-05 03:01 | 1.28822 | 84.93738 | 32882 ft | 491 kts | 138° |
| 2026-05-05 03:01 | 1.23565 | 84.98117 | 32882 ft | 491 kts | 138° |
| 2026-05-05 03:02 | 1.18326 | 85.02481 | 32901 ft | 491 kts | 138° |
| 2026-05-05 03:02 | 1.13092 | 85.06840 | 32878 ft | 491 kts | 138° |
| 2026-05-05 03:03 | 1.07830 | 85.11225 | 32896 ft | 492 kts | 138° |
| 2026-05-05 03:03 | 1.02616 | 85.15627 | 32894 ft | 492 kts | 136° |
| 2026-05-05 03:04 | 0.97540 | 85.20243 | 32892 ft | 492 kts | 135° |
| 2026-05-05 03:04 | 0.92514 | 85.24885 | 32874 ft | 493 kts | 135° |
| 2026-05-05 03:05 | 0.87440 | 85.29526 | 32889 ft | 493 kts | 135° |
| 2026-05-05 03:05 | 0.82392 | 85.34112 | 32891 ft | 493 kts | 135° |
| 2026-05-05 03:06 | 0.77302 | 85.38728 | 32874 ft | 493 kts | 135° |
| 2026-05-05 03:06 | 0.72240 | 85.43319 | 32881 ft | 492 kts | 135° |
| 2026-05-05 03:07 | 0.67186 | 85.47906 | 32889 ft | 493 kts | 135° |
| 2026-05-05 03:07 | 0.62085 | 85.52536 | 32885 ft | 493 kts | 136° |
| 2026-05-05 03:08 | 0.57008 | 85.57143 | 32886 ft | 494 kts | 135° |
| 2026-05-05 03:08 | 0.51926 | 85.61755 | 32883 ft | 494 kts | 135° |
| 2026-05-05 03:09 | 0.46848 | 85.66363 | 32883 ft | 494 kts | 135° |
| 2026-05-05 03:09 | 0.41769 | 85.70972 | 32882 ft | 494 kts | 136° |
| 2026-05-05 03:10 | 0.36650 | 85.75617 | 32883 ft | 494 kts | 135° |
| 2026-05-05 03:10 | 0.31583 | 85.80215 | 32882 ft | 494 kts | 135° |
| 2026-05-05 03:11 | 0.26513 | 85.84816 | 32880 ft | 494 kts | 136° |
| 2026-05-05 03:11 | 0.21431 | 85.89427 | 32880 ft | 494 kts | 136° |
| 2026-05-05 03:12 | 0.16327 | 85.94058 | 32882 ft | 494 kts | 135° |
| 2026-05-05 03:12 | 0.11233 | 85.98681 | 32883 ft | 493 kts | 135° |
| 2026-05-05 03:13 | 0.06166 | 86.03279 | 32881 ft | 493 kts | 135° |
| 2026-05-05 03:13 | 0.01099 | 86.07877 | 32884 ft | 493 kts | 135° |
| 2026-05-05 03:14 | -0.03995 | 86.12499 | 32877 ft | 494 kts | 136° |
| 2026-05-05 03:14 | -0.09065 | 86.17099 | 32881 ft | 494 kts | 136° |
| 2026-05-05 03:15 | -0.14151 | 86.21715 | 32880 ft | 494 kts | 136° |
| 2026-05-05 03:15 | -0.19259 | 86.26351 | 32880 ft | 495 kts | 136° |
| 2026-05-05 03:16 | -0.24336 | 86.30959 | 32882 ft | 495 kts | 136° |
| 2026-05-05 03:16 | -0.29426 | 86.35579 | 32879 ft | 495 kts | 136° |
| 2026-05-05 03:17 | -0.34545 | 86.40166 | 32877 ft | 495 kts | 136° |
| 2026-05-05 03:17 | -0.39747 | 86.44696 | 32879 ft | 494 kts | 137° |
| 2026-05-05 03:18 | -0.44913 | 86.49188 | 32875 ft | 494 kts | 137° |
| 2026-05-05 03:18 | -0.50106 | 86.53722 | 32876 ft | 493 kts | 137° |
| 2026-05-05 03:19 | -0.57817 | 86.60471 | 32876 ft | 493 kts | 137° |
| 2026-05-05 03:19 | -0.62963 | 86.64977 | 32877 ft | 492 kts | 137° |
| 2026-05-05 03:20 | -0.68141 | 86.69509 | 32878 ft | 493 kts | 137° |
| 2026-05-05 03:20 | -0.73289 | 86.74015 | 32875 ft | 493 kts | 137° |
| 2026-05-05 03:21 | -0.78430 | 86.78515 | 32885 ft | 492 kts | 137° |
| 2026-05-05 03:21 | -0.83563 | 86.83007 | 32874 ft | 491 kts | 137° |
| 2026-05-05 03:22 | -0.88680 | 86.87486 | 32876 ft | 489 kts | 137° |
| 2026-05-05 03:22 | -0.93820 | 86.91986 | 32871 ft | 488 kts | 137° |
| 2026-05-05 03:23 | -0.98905 | 86.96438 | 32868 ft | 488 kts | 137° |
| 2026-05-05 03:23 | -1.04002 | 87.00900 | 32872 ft | 487 kts | 137° |
| 2026-05-05 03:24 | -1.09118 | 87.05380 | 32871 ft | 488 kts | 137° |
| 2026-05-05 03:24 | -1.14214 | 87.09842 | 32873 ft | 488 kts | 137° |
| 2026-05-05 03:25 | -1.19310 | 87.14306 | 32870 ft | 489 kts | 137° |
| 2026-05-05 03:25 | -1.24449 | 87.18805 | 32872 ft | 490 kts | 137° |
| 2026-05-05 03:26 | -1.29566 | 87.23283 | 32872 ft | 491 kts | 137° |
| 2026-05-05 03:26 | -1.34719 | 87.27795 | 32871 ft | 491 kts | 137° |
| 2026-05-05 03:27 | -1.39831 | 87.32272 | 32870 ft | 491 kts | 137° |
| 2026-05-05 03:27 | -1.44980 | 87.36782 | 32871 ft | 491 kts | 137° |
| 2026-05-05 03:28 | -1.50131 | 87.41294 | 32871 ft | 491 kts | 137° |
| 2026-05-05 03:28 | -1.55257 | 87.45785 | 32866 ft | 491 kts | 137° |
| 2026-05-05 03:29 | -1.60380 | 87.50273 | 32874 ft | 491 kts | 137° |
| 2026-05-05 03:29 | -1.65512 | 87.54770 | 32872 ft | 492 kts | 137° |
| 2026-05-05 03:30 | -1.70679 | 87.59297 | 32874 ft | 492 kts | 137° |
| 2026-05-05 03:30 | -1.75816 | 87.63798 | 32875 ft | 493 kts | 137° |
| 2026-05-05 03:31 | -1.80987 | 87.68330 | 32872 ft | 493 kts | 137° |
| 2026-05-05 03:31 | -1.86132 | 87.72840 | 32874 ft | 493 kts | 137° |
| 2026-05-05 03:32 | -1.91267 | 87.77341 | 32874 ft | 493 kts | 137° |
| 2026-05-05 03:32 | -1.96449 | 87.81884 | 32875 ft | 493 kts | 137° |
| 2026-05-05 03:33 | -2.01602 | 87.86392 | 32875 ft | 494 kts | 137° |
| 2026-05-05 03:33 | -2.06837 | 87.90865 | 32875 ft | 494 kts | 138° |
| 2026-05-05 03:34 | -2.12066 | 87.95305 | 32875 ft | 494 kts | 138° |
| 2026-05-05 03:34 | -2.17288 | 87.99752 | 32874 ft | 494 kts | 138° |
| 2026-05-05 03:35 | -2.22532 | 88.04229 | 32873 ft | 494 kts | 138° |
| 2026-05-05 03:35 | -2.27731 | 88.08671 | 32874 ft | 494 kts | 138° |
| 2026-05-05 03:36 | -2.32968 | 88.13145 | 32875 ft | 494 kts | 138° |
| 2026-05-05 03:36 | -2.38194 | 88.17609 | 32872 ft | 493 kts | 138° |
| 2026-05-05 03:37 | -2.43392 | 88.22049 | 32874 ft | 493 kts | 138° |
| 2026-05-05 03:37 | -2.48590 | 88.26490 | 32875 ft | 492 kts | 138° |
| 2026-05-05 03:38 | -2.53795 | 88.30939 | 32875 ft | 492 kts | 138° |
| 2026-05-05 03:38 | -2.59018 | 88.35402 | 32876 ft | 492 kts | 138° |
| 2026-05-05 03:39 | -2.64216 | 88.39845 | 32877 ft | 492 kts | 138° |
| 2026-05-05 03:39 | -2.69408 | 88.44283 | 32882 ft | 492 kts | 138° |
| 2026-05-05 03:40 | -2.74597 | 88.48719 | 32878 ft | 491 kts | 138° |
| 2026-05-05 03:40 | -2.79806 | 88.53174 | 32875 ft | 490 kts | 138° |
| 2026-05-05 03:41 | -2.84968 | 88.57589 | 32876 ft | 490 kts | 138° |
| 2026-05-05 03:41 | -2.90131 | 88.62015 | 32880 ft | 489 kts | 137° |
| 2026-05-05 03:42 | -2.94419 | 88.65719 | 32879 ft | 488 kts | 137° |
| 2026-05-05 03:42 | -3.00412 | 88.70906 | 32880 ft | 488 kts | 137° |
| 2026-05-05 03:43 | -3.04692 | 88.74609 | 32881 ft | 488 kts | 137° |
| 2026-05-05 03:43 | -3.09832 | 88.79053 | 32880 ft | 489 kts | 137° |
| 2026-05-05 03:44 | -3.14975 | 88.83500 | 32884 ft | 490 kts | 137° |
| 2026-05-05 03:44 | -3.20160 | 88.87983 | 32883 ft | 491 kts | 137° |
| 2026-05-05 03:45 | -3.25313 | 88.92439 | 32886 ft | 492 kts | 137° |
| 2026-05-05 03:45 | -3.30503 | 88.96929 | 32885 ft | 492 kts | 137° |
| 2026-05-05 03:46 | -3.35664 | 89.01393 | 32884 ft | 492 kts | 137° |
| 2026-05-05 03:46 | -3.40859 | 89.05887 | 32884 ft | 491 kts | 137° |
| 2026-05-05 03:47 | -3.46015 | 89.10349 | 32884 ft | 491 kts | 137° |
| 2026-05-05 03:47 | -3.51175 | 89.14815 | 32888 ft | 491 kts | 137° |
| 2026-05-05 03:48 | -3.56351 | 89.19295 | 32885 ft | 490 kts | 137° |
| 2026-05-05 03:48 | -3.61478 | 89.23733 | 32888 ft | 490 kts | 137° |
| 2026-05-05 03:49 | -3.66645 | 89.28208 | 32888 ft | 490 kts | 137° |
| 2026-05-05 03:49 | -3.71823 | 89.32692 | 32889 ft | 490 kts | 137° |
| 2026-05-05 03:50 | -3.76969 | 89.37148 | 32887 ft | 490 kts | 137° |
| 2026-05-05 03:50 | -3.82106 | 89.41599 | 32884 ft | 491 kts | 137° |
| 2026-05-05 03:51 | -3.87291 | 89.46091 | 32891 ft | 491 kts | 137° |
| 2026-05-05 03:51 | -3.92441 | 89.50554 | 32892 ft | 492 kts | 137° |
| 2026-05-05 03:52 | -3.97641 | 89.55061 | 32892 ft | 493 kts | 137° |
| 2026-05-05 03:52 | -4.02824 | 89.59554 | 32891 ft | 494 kts | 137° |
| 2026-05-05 03:53 | -4.08026 | 89.64064 | 32890 ft | 494 kts | 137° |
| 2026-05-05 03:53 | -4.13220 | 89.68568 | 32894 ft | 494 kts | 137° |
| 2026-05-05 03:54 | -4.18387 | 89.73049 | 32894 ft | 494 kts | 137° |
| 2026-05-05 03:54 | -4.23602 | 89.77573 | 32890 ft | 494 kts | 137° |
| 2026-05-05 03:55 | -4.28775 | 89.82062 | 32891 ft | 494 kts | 137° |
| 2026-05-05 03:55 | -4.33997 | 89.86593 | 32891 ft | 494 kts | 137° |
| 2026-05-05 03:56 | -4.39167 | 89.91080 | 32893 ft | 494 kts | 137° |
| 2026-05-05 03:56 | -4.44388 | 89.95613 | 32893 ft | 495 kts | 137° |
| 2026-05-05 03:57 | -4.49569 | 90.00112 | 32889 ft | 495 kts | 138° |
| 2026-05-05 03:57 | -4.54767 | 90.04626 | 32892 ft | 495 kts | 138° |
| 2026-05-05 03:58 | -4.59999 | 90.09171 | 32890 ft | 497 kts | 138° |
| 2026-05-05 03:58 | -4.65214 | 90.13703 | 32897 ft | 498 kts | 138° |
| 2026-05-05 03:59 | -4.70463 | 90.18263 | 32893 ft | 500 kts | 138° |
| 2026-05-05 03:59 | -4.75714 | 90.22827 | 32897 ft | 501 kts | 138° |
| 2026-05-05 04:00 | -4.81000 | 90.27423 | 32897 ft | 501 kts | 138° |
| 2026-05-05 04:00 | -4.86248 | 90.31986 | 32899 ft | 501 kts | 138° |
| 2026-05-05 04:01 | -4.91501 | 90.36555 | 32896 ft | 500 kts | 138° |
| 2026-05-05 04:01 | -4.96744 | 90.41117 | 32882 ft | 501 kts | 138° |
| 2026-05-05 04:02 | -5.02039 | 90.45724 | 32900 ft | 502 kts | 138° |
| 2026-05-05 04:02 | -5.07291 | 90.50295 | 32902 ft | 504 kts | 138° |
| 2026-05-05 04:03 | -5.12588 | 90.54905 | 32904 ft | 505 kts | 138° |
| 2026-05-05 04:03 | -5.17922 | 90.59550 | 32900 ft | 505 kts | 138° |
| 2026-05-05 04:04 | -5.23220 | 90.64166 | 32895 ft | 505 kts | 138° |
| 2026-05-05 04:04 | -5.28516 | 90.68781 | 32897 ft | 505 kts | 138° |
| 2026-05-05 04:05 | -5.33838 | 90.73417 | 32897 ft | 505 kts | 138° |
| 2026-05-05 04:05 | -5.39106 | 90.78046 | 32900 ft | 502 kts | 137° |
| 2026-05-05 04:06 | -5.44316 | 90.82657 | 32894 ft | 500 kts | 137° |
| 2026-05-05 04:06 | -5.49523 | 90.87264 | 32896 ft | 499 kts | 137° |
| 2026-05-05 04:07 | -5.54747 | 90.91882 | 32897 ft | 497 kts | 138° |
| 2026-05-05 04:07 | -5.59930 | 90.96463 | 32899 ft | 497 kts | 138° |
| 2026-05-05 04:08 | -5.65118 | 91.01048 | 32897 ft | 497 kts | 137° |
| 2026-05-05 04:08 | -5.70310 | 91.05639 | 32897 ft | 498 kts | 137° |
| 2026-05-05 04:09 | -5.75495 | 91.10225 | 32896 ft | 499 kts | 138° |
| 2026-05-05 04:09 | -5.80736 | 91.14862 | 32903 ft | 501 kts | 138° |
| 2026-05-05 04:10 | -5.85963 | 91.19488 | 32902 ft | 503 kts | 138° |
| 2026-05-05 04:10 | -5.91241 | 91.24157 | 32908 ft | 504 kts | 138° |
| 2026-05-05 04:11 | -5.96499 | 91.28811 | 32903 ft | 504 kts | 138° |
| 2026-05-05 04:11 | -6.01741 | 91.33457 | 32881 ft | 504 kts | 138° |
| 2026-05-05 04:12 | -6.06989 | 91.38106 | 32902 ft | 504 kts | 138° |
| 2026-05-05 04:12 | -6.12241 | 91.42757 | 32900 ft | 504 kts | 137° |
| 2026-05-05 04:13 | -6.17522 | 91.47437 | 32907 ft | 504 kts | 137° |
| 2026-05-05 04:13 | -6.22760 | 91.52082 | 32904 ft | 504 kts | 137° |
| 2026-05-05 04:14 | -6.28011 | 91.56740 | 32904 ft | 502 kts | 137° |
| 2026-05-05 04:14 | -6.33230 | 91.61370 | 32897 ft | 501 kts | 137° |
| 2026-05-05 04:15 | -6.38445 | 91.65996 | 32901 ft | 500 kts | 137° |
| 2026-05-05 04:15 | -6.43670 | 91.70631 | 32904 ft | 499 kts | 137° |
| 2026-05-05 04:16 | -6.48856 | 91.75237 | 32895 ft | 498 kts | 137° |
| 2026-05-05 04:16 | -6.54029 | 91.79832 | 32902 ft | 498 kts | 137° |
| 2026-05-05 04:17 | -6.59243 | 91.84464 | 32902 ft | 499 kts | 137° |
| 2026-05-05 04:17 | -6.64426 | 91.89071 | 32901 ft | 500 kts | 137° |
| 2026-05-05 04:18 | -6.69668 | 91.93726 | 32901 ft | 501 kts | 138° |
| 2026-05-05 04:18 | -6.74892 | 91.98369 | 32908 ft | 503 kts | 138° |
| 2026-05-05 04:19 | -6.80131 | 92.03033 | 32905 ft | 505 kts | 138° |
| 2026-05-05 04:19 | -6.85388 | 92.07709 | 32902 ft | 505 kts | 137° |
| 2026-05-05 04:20 | -6.90674 | 92.12412 | 32899 ft | 505 kts | 137° |
| 2026-05-05 04:20 | -6.95914 | 92.17076 | 32898 ft | 504 kts | 137° |
| 2026-05-05 04:21 | -7.01184 | 92.21770 | 32898 ft | 503 kts | 137° |
| 2026-05-05 04:21 | -7.06402 | 92.26418 | 32897 ft | 502 kts | 137° |
| 2026-05-05 04:22 | -7.11618 | 92.31066 | 32896 ft | 502 kts | 138° |
| 2026-05-05 04:22 | -7.16860 | 92.35737 | 32899 ft | 501 kts | 138° |
| 2026-05-05 04:23 | -7.22071 | 92.40383 | 32900 ft | 501 kts | 138° |
| 2026-05-05 04:23 | -7.27270 | 92.45020 | 32900 ft | 501 kts | 138° |
| 2026-05-05 04:24 | -7.32495 | 92.49681 | 32899 ft | 501 kts | 138° |
| 2026-05-05 04:25 | -7.40331 | 92.56675 | 32899 ft | 502 kts | 138° |
| 2026-05-05 04:25 | -7.45553 | 92.61337 | 32899 ft | 503 kts | 138° |
| 2026-05-05 04:26 | -7.50784 | 92.66010 | 32901 ft | 503 kts | 138° |
| 2026-05-05 04:26 | -7.56042 | 92.70709 | 32901 ft | 503 kts | 137° |
| 2026-05-05 04:27 | -7.61267 | 92.75377 | 32892 ft | 503 kts | 138° |
| 2026-05-05 04:27 | -7.66504 | 92.80057 | 32892 ft | 504 kts | 137° |
| 2026-05-05 04:28 | -7.71776 | 92.84785 | 32909 ft | 505 kts | 138° |
| 2026-05-05 04:28 | -7.77015 | 92.89466 | 32898 ft | 504 kts | 138° |
| 2026-05-05 04:29 | -7.82274 | 92.94169 | 32894 ft | 503 kts | 138° |
| 2026-05-05 04:29 | -7.86614 | 92.98053 | 32895 ft | 502 kts | 138° |
| 2026-05-05 04:30 | -7.92695 | 93.03501 | 32898 ft | 501 kts | 138° |
| 2026-05-05 04:30 | -7.97897 | 93.08159 | 32905 ft | 500 kts | 138° |
| 2026-05-05 04:31 | -8.02232 | 93.12049 | 32896 ft | 499 kts | 138° |
| 2026-05-05 04:31 | -8.07404 | 93.16689 | 32900 ft | 498 kts | 138° |
| 2026-05-05 04:32 | -8.12588 | 93.21336 | 32898 ft | 496 kts | 138° |
| 2026-05-05 04:32 | -8.17735 | 93.25952 | 32899 ft | 496 kts | 138° |
| 2026-05-05 04:33 | -8.22888 | 93.30576 | 32900 ft | 496 kts | 138° |
| 2026-05-05 04:33 | -8.28030 | 93.35194 | 32902 ft | 496 kts | 138° |
| 2026-05-05 04:34 | -8.33213 | 93.39850 | 32902 ft | 497 kts | 137° |
| 2026-05-05 04:34 | -8.38379 | 93.44493 | 32905 ft | 499 kts | 138° |
| 2026-05-05 04:35 | -8.43564 | 93.49151 | 32902 ft | 500 kts | 138° |
| 2026-05-05 04:35 | -8.48762 | 93.53825 | 32905 ft | 502 kts | 137° |
| 2026-05-05 04:36 | -8.53979 | 93.58518 | 32908 ft | 503 kts | 137° |
| 2026-05-05 04:36 | -8.59218 | 93.63235 | 32908 ft | 503 kts | 138° |
| 2026-05-05 04:37 | -8.64429 | 93.67924 | 32902 ft | 502 kts | 138° |
| 2026-05-05 04:37 | -8.69617 | 93.72596 | 32903 ft | 500 kts | 138° |
| 2026-05-05 04:38 | -8.74825 | 93.77288 | 32902 ft | 499 kts | 138° |
| 2026-05-05 04:38 | -8.79996 | 93.81949 | 32908 ft | 499 kts | 138° |
| 2026-05-05 04:39 | -8.85196 | 93.86638 | 32906 ft | 500 kts | 138° |
| 2026-05-05 04:39 | -8.90395 | 93.91327 | 32906 ft | 501 kts | 138° |
| 2026-05-05 04:40 | -8.95587 | 93.96014 | 32907 ft | 503 kts | 138° |
| 2026-05-05 04:40 | -9.00793 | 94.00718 | 32903 ft | 504 kts | 137° |
| 2026-05-05 04:41 | -9.05851 | 94.05650 | 32903 ft | 504 kts | 135° |
| 2026-05-05 04:41 | -9.10785 | 94.10670 | 32901 ft | 505 kts | 135° |
| 2026-05-05 04:42 | -9.15775 | 94.15709 | 32908 ft | 505 kts | 135° |
| 2026-05-05 04:42 | -9.20770 | 94.20703 | 32910 ft | 505 kts | 135° |
| 2026-05-05 04:43 | -9.25784 | 94.25700 | 32902 ft | 504 kts | 135° |
| 2026-05-05 04:43 | -9.30756 | 94.30658 | 32901 ft | 503 kts | 135° |
| 2026-05-05 04:44 | -9.35718 | 94.35612 | 32893 ft | 502 kts | 135° |
| 2026-05-05 04:44 | -9.40712 | 94.40599 | 32914 ft | 503 kts | 135° |
| 2026-05-05 04:45 | -9.45681 | 94.45564 | 32905 ft | 505 kts | 135° |
| 2026-05-05 04:45 | -9.50700 | 94.50586 | 32902 ft | 507 kts | 135° |
| 2026-05-05 04:46 | -9.55717 | 94.55604 | 32912 ft | 509 kts | 135° |
| 2026-05-05 04:46 | -9.60746 | 94.60634 | 32911 ft | 510 kts | 135° |
| 2026-05-05 04:47 | -9.65796 | 94.65693 | 32898 ft | 509 kts | 135° |
| 2026-05-05 04:47 | -9.70816 | 94.70719 | 32908 ft | 508 kts | 135° |
| 2026-05-05 04:48 | -9.75840 | 94.75752 | 32898 ft | 505 kts | 135° |
| 2026-05-05 04:48 | -9.80798 | 94.80726 | 32897 ft | 503 kts | 135° |
| 2026-05-05 04:49 | -9.85798 | 94.85739 | 32909 ft | 504 kts | 135° |
| 2026-05-05 04:49 | -9.90775 | 94.90733 | 32911 ft | 505 kts | 135° |
| 2026-05-05 04:50 | -9.95788 | 94.95767 | 32911 ft | 506 kts | 135° |
| 2026-05-05 04:50 | -10.00776 | 95.00783 | 32906 ft | 508 kts | 135° |
| 2026-05-05 04:51 | -10.05652 | 95.06000 | 32905 ft | 509 kts | 133° |
| 2026-05-05 04:51 | -10.10423 | 95.11291 | 32910 ft | 510 kts | 133° |
| 2026-05-05 04:52 | -10.15217 | 95.16585 | 32907 ft | 510 kts | 133° |
| 2026-05-05 04:52 | -10.20049 | 95.21877 | 32900 ft | 510 kts | 133° |
| 2026-05-05 04:53 | -10.24852 | 95.27120 | 32909 ft | 509 kts | 133° |
| 2026-05-05 04:53 | -10.29687 | 95.32400 | 32904 ft | 508 kts | 133° |
| 2026-05-05 04:54 | -10.34490 | 95.37651 | 32905 ft | 508 kts | 133° |
| 2026-05-05 04:54 | -10.39295 | 95.42907 | 32916 ft | 508 kts | 133° |
| 2026-05-05 04:55 | -10.44108 | 95.48176 | 32911 ft | 507 kts | 133° |
| 2026-05-05 04:55 | -10.48897 | 95.53420 | 32909 ft | 507 kts | 133° |
| 2026-05-05 04:56 | -10.53670 | 95.58650 | 32909 ft | 506 kts | 133° |
| 2026-05-05 04:56 | -10.58474 | 95.63916 | 32910 ft | 506 kts | 133° |
| 2026-05-05 04:57 | -10.63250 | 95.69155 | 32908 ft | 507 kts | 133° |
| 2026-05-05 04:57 | -10.68032 | 95.74402 | 32917 ft | 508 kts | 133° |
| 2026-05-05 04:58 | -10.72867 | 95.79708 | 32920 ft | 509 kts | 133° |
| 2026-05-05 04:58 | -10.77673 | 95.84986 | 32915 ft | 509 kts | 133° |
| 2026-05-05 04:59 | -10.82466 | 95.90255 | 32918 ft | 509 kts | 133° |
| 2026-05-05 04:59 | -10.87294 | 95.95563 | 32909 ft | 509 kts | 133° |
| 2026-05-05 05:00 | -10.92101 | 96.00851 | 32912 ft | 510 kts | 133° |
| 2026-05-05 05:00 | -10.96895 | 96.06126 | 32918 ft | 510 kts | 133° |
| 2026-05-05 05:01 | -11.01740 | 96.11462 | 32919 ft | 510 kts | 133° |
| 2026-05-05 05:01 | -11.06543 | 96.16754 | 32915 ft | 510 kts | 133° |
| 2026-05-05 05:02 | -11.11346 | 96.22049 | 32918 ft | 509 kts | 133° |
| 2026-05-05 05:02 | -11.16142 | 96.27338 | 32894 ft | 509 kts | 133° |
| 2026-05-05 05:03 | -11.20929 | 96.32620 | 32910 ft | 508 kts | 133° |
| 2026-05-05 05:03 | -11.25719 | 96.37909 | 32916 ft | 508 kts | 133° |
| 2026-05-05 05:04 | -11.30548 | 96.43243 | 32924 ft | 509 kts | 133° |
| 2026-05-05 05:04 | -11.35335 | 96.48533 | 32921 ft | 510 kts | 133° |
| 2026-05-05 05:05 | -11.40122 | 96.53827 | 32908 ft | 510 kts | 133° |
| 2026-05-05 05:05 | -11.44919 | 96.59135 | 32911 ft | 510 kts | 133° |
| 2026-05-05 05:06 | -11.49742 | 96.64474 | 32924 ft | 510 kts | 133° |
| 2026-05-05 05:06 | -11.54536 | 96.69782 | 32931 ft | 510 kts | 133° |
| 2026-05-05 05:07 | -11.59321 | 96.75086 | 32907 ft | 510 kts | 133° |
| 2026-05-05 05:07 | -11.64139 | 96.80428 | 32919 ft | 510 kts | 133° |
| 2026-05-05 05:08 | -11.68932 | 96.85745 | 32916 ft | 511 kts | 133° |
| 2026-05-05 05:08 | -11.73732 | 96.91073 | 32914 ft | 511 kts | 133° |
| 2026-05-05 05:09 | -11.78566 | 96.96442 | 32920 ft | 511 kts | 133° |
| 2026-05-05 05:09 | -11.83356 | 97.01767 | 32917 ft | 512 kts | 133° |
| 2026-05-05 05:10 | -11.88175 | 97.07124 | 32930 ft | 512 kts | 133° |
| 2026-05-05 05:10 | -11.93004 | 97.12496 | 32912 ft | 512 kts | 133° |
| 2026-05-05 05:11 | -11.97813 | 97.17849 | 32926 ft | 513 kts | 133° |
| 2026-05-05 05:11 | -12.00208 | 97.20516 | 33041 ft | 516 kts | 133° |
| 2026-05-05 05:11 | -12.02643 | 97.23228 | 33325 ft | 515 kts | 133° |
| 2026-05-05 05:11 | -12.05066 | 97.25928 | 33666 ft | 513 kts | 133° |
| 2026-05-05 05:12 | -12.07483 | 97.28623 | 34003 ft | 511 kts | 133° |
| 2026-05-05 05:12 | -12.09859 | 97.31272 | 34272 ft | 510 kts | 133° |
| 2026-05-05 05:12 | -12.12265 | 97.33955 | 34525 ft | 510 kts | 133° |
| 2026-05-05 05:12 | -12.14669 | 97.36637 | 34785 ft | 509 kts | 133° |
| 2026-05-05 05:13 | -12.17061 | 97.39304 | 34853 ft | 509 kts | 133° |
| 2026-05-05 05:13 | -12.21809 | 97.44607 | 34908 ft | 505 kts | 133° |
| 2026-05-05 05:14 | -12.26546 | 97.49897 | 34926 ft | 504 kts | 133° |
| 2026-05-05 05:14 | -12.31264 | 97.55171 | 34919 ft | 504 kts | 133° |
| 2026-05-05 05:15 | -12.36013 | 97.60481 | 34933 ft | 505 kts | 133° |
| 2026-05-05 05:15 | -12.40753 | 97.65782 | 34938 ft | 506 kts | 133° |
| 2026-05-05 05:16 | -12.45499 | 97.71097 | 34921 ft | 507 kts | 133° |
| 2026-05-05 05:16 | -12.50273 | 97.76446 | 34930 ft | 507 kts | 133° |
| 2026-05-05 05:17 | -12.55011 | 97.81755 | 34935 ft | 506 kts | 133° |
| 2026-05-05 05:17 | -12.59733 | 97.87052 | 34930 ft | 504 kts | 133° |
| 2026-05-05 05:18 | -12.64448 | 97.92344 | 34926 ft | 503 kts | 133° |
| 2026-05-05 05:18 | -12.69177 | 97.97654 | 34933 ft | 502 kts | 133° |
| 2026-05-05 05:19 | -12.73871 | 98.02927 | 34932 ft | 501 kts | 133° |
| 2026-05-05 05:19 | -12.78552 | 98.08190 | 34930 ft | 501 kts | 133° |
| 2026-05-05 05:20 | -12.82465 | 98.12590 | 34935 ft | 502 kts | 133° |
| 2026-05-05 05:20 | -12.87957 | 98.18771 | 34936 ft | 504 kts | 133° |
| 2026-05-05 05:21 | -12.91897 | 98.23210 | 34935 ft | 506 kts | 133° |
| 2026-05-05 05:21 | -12.96628 | 98.28537 | 34949 ft | 507 kts | 133° |
| 2026-05-05 05:22 | -13.01393 | 98.33912 | 34937 ft | 508 kts | 133° |
| 2026-05-05 05:22 | -13.06151 | 98.39278 | 34942 ft | 507 kts | 133° |
| 2026-05-05 05:23 | -13.10885 | 98.44626 | 34934 ft | 506 kts | 133° |
| 2026-05-05 05:23 | -13.15592 | 98.49941 | 34940 ft | 504 kts | 133° |
| 2026-05-05 05:24 | -13.20296 | 98.55259 | 34935 ft | 504 kts | 133° |
| 2026-05-05 05:24 | -13.25026 | 98.60608 | 34939 ft | 504 kts | 133° |
| 2026-05-05 05:25 | -13.29732 | 98.65932 | 34947 ft | 505 kts | 133° |
| 2026-05-05 05:25 | -13.34459 | 98.71285 | 34947 ft | 506 kts | 133° |
| 2026-05-05 05:26 | -13.39175 | 98.76630 | 34946 ft | 506 kts | 133° |
| 2026-05-05 05:26 | -13.43911 | 98.82000 | 34943 ft | 507 kts | 133° |
| 2026-05-05 05:27 | -13.48624 | 98.87348 | 34942 ft | 506 kts | 133° |
| 2026-05-05 05:27 | -13.55701 | 98.95385 | 34944 ft | 505 kts | 133° |
| 2026-05-05 05:28 | -13.60366 | 99.00766 | 34944 ft | 505 kts | 131° |
| 2026-05-05 05:28 | -13.64861 | 99.06339 | 34948 ft | 505 kts | 130° |
| 2026-05-05 05:29 | -13.69285 | 99.11916 | 34947 ft | 504 kts | 131° |
| 2026-05-05 05:29 | -13.73757 | 99.17505 | 34946 ft | 505 kts | 131° |
| 2026-05-05 05:30 | -13.78238 | 99.23068 | 34953 ft | 506 kts | 131° |
| 2026-05-05 05:30 | -13.82736 | 99.28644 | 34952 ft | 508 kts | 131° |
| 2026-05-05 05:31 | -13.87238 | 99.34230 | 34951 ft | 509 kts | 131° |
| 2026-05-05 05:31 | -13.91758 | 99.39845 | 34952 ft | 509 kts | 131° |
| 2026-05-05 05:32 | -13.96286 | 99.45475 | 34949 ft | 509 kts | 131° |
| 2026-05-05 05:32 | -14.00790 | 99.51080 | 34950 ft | 509 kts | 131° |
| 2026-05-05 05:33 | -14.05285 | 99.56678 | 34951 ft | 509 kts | 131° |
| 2026-05-05 05:33 | -14.09808 | 99.62313 | 34955 ft | 509 kts | 131° |
| 2026-05-05 05:34 | -14.14329 | 99.67949 | 34952 ft | 510 kts | 131° |
| 2026-05-05 05:34 | -14.18824 | 99.73557 | 34957 ft | 510 kts | 131° |
| 2026-05-05 05:35 | -14.23358 | 99.79217 | 34957 ft | 510 kts | 131° |
| 2026-05-05 05:35 | -14.27862 | 99.84844 | 34957 ft | 510 kts | 131° |
| 2026-05-05 05:36 | -14.32374 | 99.90486 | 34956 ft | 510 kts | 131° |
| 2026-05-05 05:36 | -14.36907 | 99.96157 | 34956 ft | 510 kts | 131° |
| 2026-05-05 05:37 | -14.41408 | 100.01793 | 34956 ft | 510 kts | 131° |
| 2026-05-05 05:37 | -14.45930 | 100.07458 | 34956 ft | 510 kts | 131° |
| 2026-05-05 05:38 | -14.50426 | 100.13094 | 34956 ft | 510 kts | 131° |
| 2026-05-05 05:38 | -14.54909 | 100.18719 | 34955 ft | 509 kts | 131° |
| 2026-05-05 05:39 | -14.59426 | 100.24390 | 34956 ft | 509 kts | 131° |
| 2026-05-05 05:39 | -14.63905 | 100.30018 | 34956 ft | 509 kts | 131° |
| 2026-05-05 05:40 | -14.68420 | 100.35693 | 34956 ft | 509 kts | 131° |
| 2026-05-05 05:40 | -14.72919 | 100.41354 | 34953 ft | 510 kts | 131° |
| 2026-05-05 05:41 | -14.77400 | 100.46996 | 34960 ft | 510 kts | 131° |
| 2026-05-05 05:41 | -14.81896 | 100.52662 | 34960 ft | 511 kts | 131° |
| 2026-05-05 05:42 | -14.86421 | 100.58367 | 34960 ft | 511 kts | 131° |
| 2026-05-05 05:42 | -14.90919 | 100.64043 | 34959 ft | 511 kts | 131° |
| 2026-05-05 05:43 | -14.95416 | 100.69722 | 34962 ft | 512 kts | 131° |
| 2026-05-05 05:43 | -14.99945 | 100.75445 | 34961 ft | 512 kts | 131° |
| 2026-05-05 05:44 | -15.04438 | 100.81127 | 34962 ft | 512 kts | 131° |
| 2026-05-05 05:44 | -15.08930 | 100.86812 | 34962 ft | 512 kts | 131° |
| 2026-05-05 05:45 | -15.13429 | 100.92510 | 34965 ft | 512 kts | 131° |
| 2026-05-05 05:45 | -15.17943 | 100.98231 | 34964 ft | 512 kts | 131° |
| 2026-05-05 05:46 | -15.22442 | 101.03937 | 34962 ft | 512 kts | 131° |
| 2026-05-05 05:46 | -15.26968 | 101.09683 | 34964 ft | 513 kts | 131° |
| 2026-05-05 05:47 | -15.31468 | 101.15398 | 34964 ft | 513 kts | 131° |
| 2026-05-05 05:47 | -15.35963 | 101.21113 | 34974 ft | 513 kts | 132° |
| 2026-05-05 05:48 | -15.40489 | 101.26871 | 34966 ft | 513 kts | 132° |
| 2026-05-05 05:48 | -15.44988 | 101.32598 | 34969 ft | 514 kts | 132° |
| 2026-05-05 05:49 | -15.49496 | 101.38342 | 34971 ft | 515 kts | 132° |
| 2026-05-05 05:49 | -15.54008 | 101.44096 | 34971 ft | 515 kts | 132° |
| 2026-05-05 05:50 | -15.58541 | 101.49880 | 34971 ft | 516 kts | 132° |
| 2026-05-05 05:50 | -15.63049 | 101.55638 | 34970 ft | 516 kts | 132° |
| 2026-05-05 05:51 | -15.67586 | 101.61437 | 34967 ft | 516 kts | 132° |
| 2026-05-05 05:51 | -15.72091 | 101.67199 | 34962 ft | 516 kts | 132° |
| 2026-05-05 05:52 | -15.76623 | 101.73000 | 34978 ft | 517 kts | 132° |
| 2026-05-05 05:52 | -15.81144 | 101.78792 | 34973 ft | 517 kts | 132° |
| 2026-05-05 05:53 | -15.85667 | 101.84591 | 34974 ft | 518 kts | 132° |
| 2026-05-05 05:53 | -15.90198 | 101.90404 | 34972 ft | 518 kts | 132° |
| 2026-05-05 05:54 | -15.94742 | 101.96239 | 34973 ft | 518 kts | 132° |
| 2026-05-05 05:54 | -15.99250 | 102.02033 | 34972 ft | 518 kts | 132° |
| 2026-05-05 05:55 | -16.03798 | 102.07883 | 34976 ft | 518 kts | 133° |
| 2026-05-05 05:55 | -16.08325 | 102.13709 | 34976 ft | 518 kts | 133° |
| 2026-05-05 05:56 | -16.12843 | 102.19530 | 34979 ft | 519 kts | 133° |
| 2026-05-05 05:56 | -16.17384 | 102.25384 | 34981 ft | 519 kts | 133° |
| 2026-05-05 05:57 | -16.21894 | 102.31203 | 34978 ft | 519 kts | 133° |
| 2026-05-05 05:57 | -16.26435 | 102.37073 | 34978 ft | 519 kts | 132° |
| 2026-05-05 05:58 | -16.30945 | 102.42908 | 34980 ft | 519 kts | 133° |
| 2026-05-05 05:58 | -16.35488 | 102.48787 | 34976 ft | 520 kts | 133° |
| 2026-05-05 05:59 | -16.40049 | 102.54686 | 34985 ft | 522 kts | 133° |
| 2026-05-05 05:59 | -16.44587 | 102.60554 | 34984 ft | 523 kts | 133° |
| 2026-05-05 06:00 | -16.49141 | 102.66456 | 34984 ft | 524 kts | 133° |
| 2026-05-05 06:00 | -16.53721 | 102.72403 | 34985 ft | 525 kts | 133° |
| 2026-05-05 06:01 | -16.58306 | 102.78361 | 34980 ft | 525 kts | 133° |
| 2026-05-05 06:01 | -16.62867 | 102.84291 | 34977 ft | 525 kts | 133° |
| 2026-05-05 06:02 | -16.67427 | 102.90223 | 34984 ft | 526 kts | 133° |
| 2026-05-05 06:02 | -16.71986 | 102.96160 | 34982 ft | 526 kts | 133° |
| 2026-05-05 06:03 | -16.76578 | 103.02145 | 34986 ft | 526 kts | 133° |
| 2026-05-05 06:03 | -16.81129 | 103.08082 | 34982 ft | 526 kts | 133° |
| 2026-05-05 06:04 | -16.85690 | 103.14036 | 34987 ft | 527 kts | 133° |
| 2026-05-05 06:04 | -16.90276 | 103.20029 | 34985 ft | 527 kts | 133° |
| 2026-05-05 06:05 | -16.94837 | 103.25993 | 34986 ft | 527 kts | 133° |
| 2026-05-05 06:05 | -16.99399 | 103.31965 | 34992 ft | 527 kts | 133° |
| 2026-05-05 06:06 | -17.03982 | 103.37969 | 34984 ft | 526 kts | 133° |
| 2026-05-05 06:06 | -17.08535 | 103.43939 | 34985 ft | 526 kts | 133° |
| 2026-05-05 06:07 | -17.13084 | 103.49910 | 34989 ft | 525 kts | 133° |
| 2026-05-05 06:07 | -17.17618 | 103.55865 | 34988 ft | 525 kts | 133° |
| 2026-05-05 06:08 | -17.22171 | 103.61849 | 34988 ft | 525 kts | 133° |
| 2026-05-05 06:08 | -17.26705 | 103.67816 | 34986 ft | 525 kts | 133° |
| 2026-05-05 06:09 | -17.30489 | 103.72799 | 35001 ft | 524 kts | 134° |
| 2026-05-05 06:09 | -17.35042 | 103.78799 | 34986 ft | 524 kts | 134° |
| 2026-05-05 06:10 | -17.39562 | 103.84762 | 34987 ft | 523 kts | 134° |
| 2026-05-05 06:10 | -17.44060 | 103.90701 | 34978 ft | 523 kts | 134° |
| 2026-05-05 06:11 | -17.48583 | 103.96678 | 34994 ft | 522 kts | 134° |
| 2026-05-05 06:11 | -17.53101 | 104.02652 | 34991 ft | 522 kts | 134° |
| 2026-05-05 06:12 | -17.57600 | 104.08607 | 34996 ft | 522 kts | 134° |
| 2026-05-05 06:12 | -17.62104 | 104.14576 | 34998 ft | 522 kts | 134° |
| 2026-05-05 06:13 | -17.66606 | 104.20545 | 34979 ft | 523 kts | 134° |
| 2026-05-05 06:13 | -17.71132 | 104.26553 | 34996 ft | 523 kts | 134° |
| 2026-05-05 06:14 | -17.75628 | 104.32527 | 34995 ft | 524 kts | 134° |
| 2026-05-05 06:14 | -17.80162 | 104.38556 | 34989 ft | 524 kts | 134° |
| 2026-05-05 06:15 | -17.84668 | 104.44553 | 34987 ft | 524 kts | 134° |
| 2026-05-05 06:15 | -17.89170 | 104.50551 | 34999 ft | 525 kts | 134° |
| 2026-05-05 06:16 | -17.93684 | 104.56570 | 34989 ft | 525 kts | 134° |
| 2026-05-05 06:16 | -17.98198 | 104.62596 | 34995 ft | 525 kts | 134° |
| 2026-05-05 06:17 | -18.02727 | 104.68646 | 34993 ft | 525 kts | 134° |
| 2026-05-05 06:17 | -18.07225 | 104.74660 | 34991 ft | 525 kts | 134° |
| 2026-05-05 06:18 | -18.11749 | 104.80715 | 34991 ft | 525 kts | 134° |
| 2026-05-05 06:18 | -18.16243 | 104.86736 | 34994 ft | 525 kts | 134° |
| 2026-05-05 06:19 | -18.20727 | 104.92749 | 35010 ft | 525 kts | 134° |
| 2026-05-05 06:19 | -18.25243 | 104.98809 | 35003 ft | 525 kts | 134° |
| 2026-05-05 06:20 | -18.29771 | 105.04891 | 34999 ft | 526 kts | 134° |
| 2026-05-05 06:20 | -18.34275 | 105.10948 | 34997 ft | 526 kts | 134° |
| 2026-05-05 06:21 | -18.38771 | 105.16999 | 35000 ft | 527 kts | 134° |
| 2026-05-05 06:21 | -18.43299 | 105.23100 | 34997 ft | 527 kts | 134° |
| 2026-05-05 06:22 | -18.47799 | 105.29169 | 35001 ft | 527 kts | 134° |
| 2026-05-05 06:22 | -18.52306 | 105.35252 | 35009 ft | 528 kts | 134° |
| 2026-05-05 06:23 | -18.56814 | 105.41342 | 35001 ft | 528 kts | 134° |
| 2026-05-05 06:23 | -18.61353 | 105.47481 | 35003 ft | 529 kts | 134° |
| 2026-05-05 06:24 | -18.65870 | 105.53597 | 34999 ft | 529 kts | 134° |
| 2026-05-05 06:24 | -18.70393 | 105.59726 | 34999 ft | 529 kts | 134° |
| 2026-05-05 06:25 | -18.74908 | 105.65849 | 34999 ft | 529 kts | 134° |
| 2026-05-05 06:25 | -18.79399 | 105.71948 | 35019 ft | 529 kts | 134° |
| 2026-05-05 06:26 | -18.83938 | 105.78116 | 35012 ft | 530 kts | 134° |
| 2026-05-05 06:26 | -18.88444 | 105.84246 | 35007 ft | 531 kts | 134° |
| 2026-05-05 06:27 | -18.95221 | 105.93479 | 35002 ft | 531 kts | 134° |
| 2026-05-05 06:28 | -18.99770 | 105.99682 | 35006 ft | 531 kts | 134° |
| 2026-05-05 06:28 | -19.04166 | 106.05928 | 35002 ft | 533 kts | 131° |
| 2026-05-05 06:29 | -19.08492 | 106.12345 | 35024 ft | 534 kts | 131° |
| 2026-05-05 06:29 | -19.12785 | 106.18716 | 35004 ft | 534 kts | 132° |
| 2026-05-05 06:30 | -19.17108 | 106.25086 | 35005 ft | 534 kts | 132° |
| 2026-05-05 06:30 | -19.21468 | 106.31490 | 35010 ft | 535 kts | 132° |
| 2026-05-05 06:31 | -19.25811 | 106.37874 | 35008 ft | 535 kts | 132° |
| 2026-05-05 06:31 | -19.30143 | 106.44253 | 35004 ft | 535 kts | 132° |
| 2026-05-05 06:32 | -19.34482 | 106.50652 | 35008 ft | 535 kts | 132° |
| 2026-05-05 06:32 | -19.38807 | 106.57037 | 35013 ft | 536 kts | 132° |
| 2026-05-05 06:33 | -19.43171 | 106.63484 | 35006 ft | 536 kts | 132° |
| 2026-05-05 06:33 | -19.47507 | 106.69897 | 35005 ft | 537 kts | 132° |
| 2026-05-05 06:34 | -19.51849 | 106.76326 | 35005 ft | 537 kts | 132° |
| 2026-05-05 06:34 | -19.56188 | 106.82758 | 35009 ft | 538 kts | 132° |
| 2026-05-05 06:35 | -19.60556 | 106.89241 | 35011 ft | 538 kts | 132° |
| 2026-05-05 06:35 | -19.64897 | 106.95689 | 35007 ft | 538 kts | 132° |
| 2026-05-05 06:36 | -19.69231 | 107.02134 | 35014 ft | 539 kts | 132° |
| 2026-05-05 06:36 | -19.73598 | 107.08635 | 35015 ft | 539 kts | 132° |
| 2026-05-05 06:37 | -19.77944 | 107.15112 | 35008 ft | 539 kts | 132° |
| 2026-05-05 06:37 | -19.82307 | 107.21622 | 35012 ft | 539 kts | 132° |
| 2026-05-05 06:38 | -19.86641 | 107.28095 | 35013 ft | 540 kts | 132° |
| 2026-05-05 06:38 | -19.91001 | 107.34614 | 35012 ft | 540 kts | 132° |
| 2026-05-05 06:39 | -19.95331 | 107.41095 | 35025 ft | 540 kts | 132° |
| 2026-05-05 06:39 | -19.99662 | 107.47585 | 35017 ft | 540 kts | 132° |
| 2026-05-05 06:40 | -20.04019 | 107.54121 | 35013 ft | 540 kts | 132° |
| 2026-05-05 06:40 | -20.08354 | 107.60630 | 35014 ft | 541 kts | 132° |
| 2026-05-05 06:41 | -20.12692 | 107.67153 | 35021 ft | 541 kts | 132° |
| 2026-05-05 06:41 | -20.17052 | 107.73715 | 35019 ft | 541 kts | 132° |
| 2026-05-05 06:42 | -20.21377 | 107.80232 | 35050 ft | 540 kts | 132° |
| 2026-05-05 06:42 | -20.25732 | 107.86800 | 35019 ft | 541 kts | 132° |
| 2026-05-05 06:43 | -20.30060 | 107.93335 | 35017 ft | 541 kts | 132° |
| 2026-05-05 06:43 | -20.34396 | 107.99891 | 35023 ft | 541 kts | 132° |
| 2026-05-05 06:44 | -20.38728 | 108.06448 | 35019 ft | 541 kts | 132° |
| 2026-05-05 06:44 | -20.43052 | 108.12999 | 35031 ft | 541 kts | 132° |
| 2026-05-05 06:45 | -20.47379 | 108.19563 | 35021 ft | 542 kts | 132° |
| 2026-05-05 06:45 | -20.51696 | 108.26119 | 35021 ft | 542 kts | 132° |
| 2026-05-05 06:46 | -20.56036 | 108.32719 | 35023 ft | 542 kts | 131° |
| 2026-05-05 06:46 | -20.60341 | 108.39272 | 35020 ft | 542 kts | 131° |
| 2026-05-05 06:47 | -20.64676 | 108.45877 | 35024 ft | 542 kts | 131° |
| 2026-05-05 06:47 | -20.68979 | 108.52442 | 35020 ft | 542 kts | 131° |
| 2026-05-05 06:48 | -20.73310 | 108.59057 | 35032 ft | 541 kts | 131° |
| 2026-05-05 06:48 | -20.77614 | 108.65639 | 35038 ft | 542 kts | 131° |
| 2026-05-05 06:49 | -20.81919 | 108.72230 | 35032 ft | 542 kts | 131° |
| 2026-05-05 06:49 | -20.86256 | 108.78877 | 35033 ft | 543 kts | 131° |
| 2026-05-05 06:50 | -20.90562 | 108.85485 | 35032 ft | 543 kts | 131° |
| 2026-05-05 06:50 | -20.94891 | 108.92138 | 35028 ft | 543 kts | 131° |
| 2026-05-05 06:51 | -20.99192 | 108.98754 | 35033 ft | 544 kts | 131° |
| 2026-05-05 06:51 | -21.03155 | 109.05690 | 35064 ft | 549 kts | 126° |
| 2026-05-05 06:52 | -21.06918 | 109.12832 | 35048 ft | 550 kts | 126° |
| 2026-05-05 06:52 | -21.10668 | 109.19964 | 35033 ft | 550 kts | 126° |
| 2026-05-05 06:53 | -21.14435 | 109.27070 | 35035 ft | 551 kts | 126° |
| 2026-05-05 06:53 | -21.18239 | 109.34219 | 35039 ft | 551 kts | 126° |
| 2026-05-05 06:54 | -21.22023 | 109.41334 | 35034 ft | 551 kts | 126° |
| 2026-05-05 06:54 | -21.25822 | 109.48495 | 35033 ft | 551 kts | 126° |
| 2026-05-05 06:55 | -21.29604 | 109.55635 | 35057 ft | 552 kts | 126° |
| 2026-05-05 06:55 | -21.33376 | 109.62766 | 35042 ft | 552 kts | 126° |
| 2026-05-05 06:56 | -21.37176 | 109.69961 | 35038 ft | 553 kts | 126° |
| 2026-05-05 06:56 | -21.40967 | 109.77148 | 35034 ft | 553 kts | 126° |
| 2026-05-05 06:57 | -21.44737 | 109.84302 | 35035 ft | 553 kts | 126° |
| 2026-05-05 06:57 | -21.48510 | 109.91474 | 35035 ft | 552 kts | 126° |
| 2026-05-05 06:58 | -21.52284 | 109.98656 | 35040 ft | 552 kts | 126° |
| 2026-05-05 06:58 | -21.55432 | 110.04655 | 35058 ft | 553 kts | 126° |
| 2026-05-05 06:59 | -21.59198 | 110.11838 | 35049 ft | 553 kts | 126° |
| 2026-05-05 06:59 | -21.62991 | 110.19085 | 35042 ft | 553 kts | 126° |
| 2026-05-05 07:00 | -21.66746 | 110.26268 | 35048 ft | 553 kts | 126° |
| 2026-05-05 07:00 | -21.70521 | 110.33499 | 35045 ft | 553 kts | 126° |
| 2026-05-05 07:01 | -21.74278 | 110.40705 | 35049 ft | 553 kts | 126° |
| 2026-05-05 07:01 | -21.78022 | 110.47895 | 35041 ft | 553 kts | 126° |
| 2026-05-05 07:02 | -21.81793 | 110.55148 | 35047 ft | 553 kts | 126° |
| 2026-05-05 07:02 | -21.85538 | 110.62360 | 35043 ft | 554 kts | 126° |
| 2026-05-05 07:03 | -21.89284 | 110.69584 | 35049 ft | 554 kts | 126° |
| 2026-05-05 07:03 | -21.93053 | 110.76864 | 35046 ft | 554 kts | 126° |
| 2026-05-05 07:04 | -21.96795 | 110.84099 | 35047 ft | 555 kts | 126° |
| 2026-05-05 07:04 | -22.00549 | 110.91369 | 35046 ft | 555 kts | 126° |
| 2026-05-05 07:05 | -22.04283 | 110.98611 | 35078 ft | 556 kts | 126° |
| 2026-05-05 07:05 | -22.08049 | 111.05923 | 35052 ft | 556 kts | 126° |
| 2026-05-05 07:06 | -22.11808 | 111.13232 | 35046 ft | 557 kts | 126° |
| 2026-05-05 07:06 | -22.15545 | 111.20509 | 35045 ft | 557 kts | 126° |
| 2026-05-05 07:07 | -22.19306 | 111.27845 | 35050 ft | 557 kts | 126° |
| 2026-05-05 07:07 | -22.23050 | 111.35156 | 35049 ft | 557 kts | 126° |
| 2026-05-05 07:08 | -22.26780 | 111.42451 | 35049 ft | 557 kts | 126° |
| 2026-05-05 07:08 | -22.30540 | 111.49813 | 35054 ft | 558 kts | 126° |
| 2026-05-05 07:09 | -22.34271 | 111.57130 | 35048 ft | 558 kts | 126° |
| 2026-05-05 07:09 | -22.37996 | 111.64445 | 35051 ft | 558 kts | 126° |
| 2026-05-05 07:10 | -22.41741 | 111.71811 | 35051 ft | 557 kts | 126° |
| 2026-05-05 07:10 | -22.45462 | 111.79139 | 35054 ft | 557 kts | 126° |
| 2026-05-05 07:11 | -22.49179 | 111.86469 | 35053 ft | 557 kts | 126° |
| 2026-05-05 07:11 | -22.52920 | 111.93858 | 35069 ft | 558 kts | 126° |
| 2026-05-05 07:12 | -22.56628 | 112.01191 | 35056 ft | 558 kts | 126° |
| 2026-05-05 07:12 | -22.60355 | 112.08574 | 35054 ft | 558 kts | 126° |
| 2026-05-05 07:13 | -22.64062 | 112.15928 | 35053 ft | 558 kts | 126° |
| 2026-05-05 07:13 | -22.67790 | 112.23334 | 35055 ft | 558 kts | 126° |
| 2026-05-05 07:14 | -22.71491 | 112.30697 | 35055 ft | 558 kts | 126° |
| 2026-05-05 07:14 | -22.75206 | 112.38099 | 35085 ft | 559 kts | 126° |
| 2026-05-05 07:15 | -22.78906 | 112.45479 | 35071 ft | 559 kts | 126° |
| 2026-05-05 07:15 | -22.82608 | 112.52877 | 35053 ft | 560 kts | 126° |
| 2026-05-05 07:16 | -22.86330 | 112.60326 | 35055 ft | 560 kts | 126° |
| 2026-05-05 07:16 | -22.90035 | 112.67751 | 35074 ft | 560 kts | 126° |
| 2026-05-05 07:17 | -22.93733 | 112.75173 | 35068 ft | 560 kts | 126° |
| 2026-05-05 07:17 | -22.97444 | 112.82631 | 35056 ft | 561 kts | 126° |
| 2026-05-05 07:18 | -23.01124 | 112.90039 | 35075 ft | 561 kts | 126° |
| 2026-05-05 07:18 | -23.04820 | 112.97491 | 35056 ft | 561 kts | 126° |
| 2026-05-05 07:19 | -23.08523 | 113.04968 | 35058 ft | 561 kts | 126° |
| 2026-05-05 07:19 | -23.12209 | 113.12421 | 35057 ft | 561 kts | 126° |
| 2026-05-05 07:20 | -23.15882 | 113.19860 | 35060 ft | 561 kts | 126° |
| 2026-05-05 07:20 | -23.19578 | 113.27356 | 35064 ft | 561 kts | 126° |
| 2026-05-05 07:21 | -23.23256 | 113.34824 | 35074 ft | 561 kts | 126° |
| 2026-05-05 07:21 | -23.26929 | 113.42296 | 35062 ft | 562 kts | 126° |
| 2026-05-05 07:22 | -23.30619 | 113.49816 | 35050 ft | 562 kts | 126° |
| 2026-05-05 07:22 | -23.34279 | 113.57285 | 35056 ft | 562 kts | 126° |
| 2026-05-05 07:23 | -23.37946 | 113.64779 | 35053 ft | 562 kts | 126° |
| 2026-05-05 07:23 | -23.41629 | 113.72317 | 35050 ft | 562 kts | 126° |
| 2026-05-05 07:24 | -23.45292 | 113.79827 | 35061 ft | 562 kts | 126° |
| 2026-05-05 07:24 | -23.48963 | 113.87298 | 35051 ft | 559 kts | 128° |
| 2026-05-05 07:25 | -23.53338 | 113.94196 | 35054 ft | 544 kts | 139° |
| 2026-05-05 07:25 | -23.58140 | 114.00495 | 35050 ft | 543 kts | 139° |
| 2026-05-05 07:26 | -23.62973 | 114.06848 | 35046 ft | 543 kts | 139° |
| 2026-05-05 07:26 | -23.67745 | 114.13208 | 35071 ft | 544 kts | 138° |
| 2026-05-05 07:27 | -23.72505 | 114.19600 | 35055 ft | 543 kts | 138° |
| 2026-05-05 07:27 | -23.77271 | 114.26013 | 35050 ft | 543 kts | 138° |
| 2026-05-05 07:28 | -23.82012 | 114.32393 | 35051 ft | 542 kts | 138° |
| 2026-05-05 07:28 | -23.86781 | 114.38814 | 35061 ft | 541 kts | 138° |
| 2026-05-05 07:29 | -23.91505 | 114.45182 | 35082 ft | 541 kts | 137° |
| 2026-05-05 07:29 | -23.96234 | 114.51566 | 35065 ft | 541 kts | 137° |
| 2026-05-05 07:30 | -24.00974 | 114.57976 | 35064 ft | 539 kts | 137° |
| 2026-05-05 07:30 | -24.08031 | 114.67533 | 35075 ft | 538 kts | 137° |
| 2026-05-05 07:31 | -24.12722 | 114.73894 | 35067 ft | 538 kts | 137° |
| 2026-05-05 07:31 | -24.17438 | 114.80297 | 35080 ft | 538 kts | 137° |
| 2026-05-05 07:32 | -24.22124 | 114.86670 | 35074 ft | 537 kts | 137° |
| 2026-05-05 07:32 | -24.26789 | 114.93022 | 35079 ft | 535 kts | 137° |
| 2026-05-05 07:33 | -24.31441 | 114.99364 | 35078 ft | 535 kts | 137° |
| 2026-05-05 07:33 | -24.36113 | 115.05740 | 35094 ft | 534 kts | 137° |
| 2026-05-05 07:34 | -24.40744 | 115.12068 | 35078 ft | 534 kts | 136° |
| 2026-05-05 07:34 | -24.45399 | 115.18444 | 35101 ft | 533 kts | 136° |
| 2026-05-05 07:35 | -24.50029 | 115.24789 | 35086 ft | 532 kts | 136° |
| 2026-05-05 07:35 | -24.54641 | 115.31116 | 35087 ft | 532 kts | 136° |
| 2026-05-05 07:36 | -24.59240 | 115.37435 | 35091 ft | 532 kts | 136° |
| 2026-05-05 07:36 | -24.63875 | 115.43809 | 35099 ft | 532 kts | 135° |
| 2026-05-05 07:37 | -24.68463 | 115.50132 | 35097 ft | 530 kts | 135° |
| 2026-05-05 07:37 | -24.73077 | 115.56499 | 35101 ft | 529 kts | 135° |
| 2026-05-05 07:38 | -24.77644 | 115.62808 | 35101 ft | 528 kts | 135° |
| 2026-05-05 07:38 | -24.82197 | 115.69105 | 35102 ft | 528 kts | 135° |
| 2026-05-05 07:39 | -24.86784 | 115.75455 | 35104 ft | 527 kts | 134° |
| 2026-05-05 07:39 | -24.91324 | 115.81753 | 35103 ft | 526 kts | 134° |
| 2026-05-05 07:40 | -24.95847 | 115.88036 | 35102 ft | 524 kts | 134° |
| 2026-05-05 07:40 | -25.00394 | 115.94358 | 35111 ft | 523 kts | 134° |
| 2026-05-05 07:41 | -25.04894 | 116.00623 | 35128 ft | 523 kts | 134° |
| 2026-05-05 07:41 | -25.09381 | 116.06877 | 35119 ft | 520 kts | 133° |
| 2026-05-05 07:42 | -25.13865 | 116.13138 | 35113 ft | 517 kts | 133° |
| 2026-05-05 07:42 | -25.18321 | 116.19366 | 35117 ft | 515 kts | 133° |
| 2026-05-05 07:43 | -25.22737 | 116.25548 | 35121 ft | 513 kts | 133° |
| 2026-05-05 07:43 | -25.27156 | 116.31740 | 35125 ft | 514 kts | 133° |
| 2026-05-05 07:44 | -25.31568 | 116.37928 | 35140 ft | 515 kts | 133° |
| 2026-05-05 07:44 | -25.36023 | 116.44185 | 35138 ft | 518 kts | 133° |
| 2026-05-05 07:45 | -25.40467 | 116.50439 | 35136 ft | 520 kts | 133° |
| 2026-05-05 07:45 | -25.44957 | 116.56766 | 35136 ft | 521 kts | 133° |
| 2026-05-05 07:46 | -25.49424 | 116.63068 | 35168 ft | 520 kts | 132° |
| 2026-05-05 07:46 | -25.53815 | 116.69280 | 35127 ft | 507 kts | 132° |
| 2026-05-05 07:47 | -25.58176 | 116.75449 | 35139 ft | 507 kts | 132° |
| 2026-05-05 07:47 | -25.62518 | 116.81593 | 35152 ft | 507 kts | 132° |
| 2026-05-05 07:48 | -25.66859 | 116.87748 | 35142 ft | 509 kts | 133° |
| 2026-05-05 07:48 | -25.71212 | 116.93930 | 35176 ft | 511 kts | 132° |
| 2026-05-05 07:49 | -25.75566 | 117.00122 | 35149 ft | 511 kts | 131° |
| 2026-05-05 07:49 | -25.79209 | 117.05310 | 35147 ft | 510 kts | 131° |
| 2026-05-05 07:50 | -25.83545 | 117.11493 | 35150 ft | 508 kts | 131° |
| 2026-05-05 07:50 | -25.87886 | 117.17691 | 35156 ft | 507 kts | 131° |
| 2026-05-05 07:51 | -25.92198 | 117.23853 | 35168 ft | 506 kts | 131° |
| 2026-05-05 07:51 | -25.96494 | 117.30003 | 35163 ft | 504 kts | 131° |
| 2026-05-05 07:52 | -26.00793 | 117.36166 | 35161 ft | 502 kts | 131° |
| 2026-05-05 07:52 | -26.05041 | 117.42264 | 35162 ft | 500 kts | 131° |
| 2026-05-05 07:53 | -26.09300 | 117.48385 | 35161 ft | 499 kts | 131° |
| 2026-05-05 07:53 | -26.13508 | 117.54505 | 35177 ft | 501 kts | 127° |
| 2026-05-05 07:54 | -26.17247 | 117.61048 | 35175 ft | 502 kts | 124° |
| 2026-05-05 07:54 | -26.20914 | 117.67711 | 35167 ft | 502 kts | 124° |
| 2026-05-05 07:55 | -26.24565 | 117.74319 | 35168 ft | 501 kts | 124° |
| 2026-05-05 07:55 | -26.28225 | 117.80900 | 35170 ft | 501 kts | 124° |
| 2026-05-05 07:56 | -26.31891 | 117.87483 | 35170 ft | 500 kts | 124° |
| 2026-05-05 07:56 | -26.35569 | 117.94096 | 35181 ft | 499 kts | 124° |
| 2026-05-05 07:57 | -26.39208 | 118.00654 | 35171 ft | 498 kts | 124° |
| 2026-05-05 07:57 | -26.42842 | 118.07213 | 35183 ft | 497 kts | 124° |
| 2026-05-05 07:58 | -26.46484 | 118.13795 | 35179 ft | 497 kts | 124° |
| 2026-05-05 07:58 | -26.50098 | 118.20338 | 35185 ft | 497 kts | 124° |
| 2026-05-05 07:59 | -26.53730 | 118.26921 | 35196 ft | 496 kts | 124° |
| 2026-05-05 07:59 | -26.57348 | 118.33490 | 35187 ft | 496 kts | 124° |
| 2026-05-05 08:00 | -26.60947 | 118.40032 | 35187 ft | 496 kts | 124° |
| 2026-05-05 08:00 | -26.64542 | 118.46577 | 35197 ft | 495 kts | 123° |
| 2026-05-05 08:01 | -26.68157 | 118.53169 | 35193 ft | 496 kts | 123° |
| 2026-05-05 08:01 | -26.71749 | 118.59728 | 35193 ft | 496 kts | 123° |
| 2026-05-05 08:02 | -26.75349 | 118.66312 | 35197 ft | 496 kts | 124° |
| 2026-05-05 08:02 | -26.78943 | 118.72895 | 35197 ft | 496 kts | 124° |
| 2026-05-05 08:03 | -26.82532 | 118.79478 | 35200 ft | 497 kts | 124° |
| 2026-05-05 08:03 | -26.86144 | 118.86112 | 35198 ft | 497 kts | 124° |
| 2026-05-05 08:04 | -26.89736 | 118.92721 | 35205 ft | 498 kts | 123° |
| 2026-05-05 08:04 | -26.93336 | 118.99352 | 35208 ft | 498 kts | 123° |
| 2026-05-05 08:05 | -26.96936 | 119.05996 | 35207 ft | 498 kts | 123° |
| 2026-05-05 08:05 | -27.00510 | 119.12600 | 35210 ft | 497 kts | 123° |
| 2026-05-05 08:06 | -27.04097 | 119.19240 | 35212 ft | 497 kts | 123° |
| 2026-05-05 08:06 | -27.07666 | 119.25854 | 35211 ft | 496 kts | 123° |
| 2026-05-05 08:07 | -27.11245 | 119.32497 | 35225 ft | 496 kts | 123° |
| 2026-05-05 08:07 | -27.14804 | 119.39114 | 35212 ft | 496 kts | 123° |
| 2026-05-05 08:08 | -27.18377 | 119.45767 | 35224 ft | 496 kts | 123° |
| 2026-05-05 08:08 | -27.21939 | 119.52409 | 35224 ft | 496 kts | 123° |
| 2026-05-05 08:09 | -27.25483 | 119.59029 | 35218 ft | 496 kts | 123° |
| 2026-05-05 08:09 | -27.29029 | 119.65661 | 35224 ft | 496 kts | 123° |
| 2026-05-05 08:10 | -27.32579 | 119.72311 | 35229 ft | 496 kts | 123° |
| 2026-05-05 08:10 | -27.36131 | 119.78975 | 35228 ft | 497 kts | 123° |
| 2026-05-05 08:11 | -27.39691 | 119.85663 | 35224 ft | 497 kts | 123° |
| 2026-05-05 08:11 | -27.43235 | 119.92334 | 35231 ft | 498 kts | 123° |
| 2026-05-05 08:12 | -27.46797 | 119.99046 | 35251 ft | 498 kts | 122° |
| 2026-05-05 08:12 | -27.50336 | 120.05727 | 35228 ft | 498 kts | 122° |
| 2026-05-05 08:13 | -27.53883 | 120.12436 | 35234 ft | 497 kts | 122° |
| 2026-05-05 08:13 | -27.57414 | 120.19121 | 35230 ft | 496 kts | 122° |
| 2026-05-05 08:14 | -27.60931 | 120.25791 | 35241 ft | 496 kts | 122° |
| 2026-05-05 08:14 | -27.64461 | 120.32496 | 35245 ft | 496 kts | 122° |
| 2026-05-05 08:15 | -27.67964 | 120.39161 | 35243 ft | 495 kts | 122° |
| 2026-05-05 08:15 | -27.71488 | 120.45876 | 35241 ft | 495 kts | 122° |
| 2026-05-05 08:16 | -27.74990 | 120.52560 | 35244 ft | 495 kts | 122° |
| 2026-05-05 08:16 | -27.78477 | 120.59226 | 35244 ft | 495 kts | 122° |
| 2026-05-05 08:17 | -27.81942 | 120.65859 | 35260 ft | 495 kts | 122° |
| 2026-05-05 08:17 | -27.85349 | 120.72649 | 35251 ft | 496 kts | 119° |
| 2026-05-05 08:18 | -27.88453 | 120.79590 | 35248 ft | 496 kts | 118° |
| 2026-05-05 08:18 | -27.91510 | 120.86540 | 35254 ft | 496 kts | 118° |
| 2026-05-05 08:19 | -27.94601 | 120.93537 | 35253 ft | 496 kts | 118° |
| 2026-05-05 08:19 | -27.97699 | 121.00519 | 35253 ft | 496 kts | 118° |
| 2026-05-05 08:20 | -28.00783 | 121.07467 | 35258 ft | 496 kts | 118° |
| 2026-05-05 08:20 | -28.03876 | 121.14448 | 35258 ft | 497 kts | 118° |
| 2026-05-05 08:21 | -28.06964 | 121.21433 | 35255 ft | 497 kts | 118° |
| 2026-05-05 08:21 | -28.10068 | 121.28466 | 35260 ft | 497 kts | 118° |
| 2026-05-05 08:22 | -28.13142 | 121.35446 | 35262 ft | 497 kts | 118° |
| 2026-05-05 08:22 | -28.16236 | 121.42480 | 35269 ft | 497 kts | 118° |
| 2026-05-05 08:23 | -28.19308 | 121.49478 | 35267 ft | 497 kts | 118° |
| 2026-05-05 08:23 | -28.22378 | 121.56485 | 35268 ft | 498 kts | 118° |
| 2026-05-05 08:24 | -28.25448 | 121.63503 | 35268 ft | 497 kts | 118° |
| 2026-05-05 08:24 | -28.28528 | 121.70554 | 35268 ft | 497 kts | 118° |
| 2026-05-05 08:25 | -28.31585 | 121.77568 | 35274 ft | 497 kts | 118° |
| 2026-05-05 08:25 | -28.34662 | 121.84638 | 35275 ft | 498 kts | 118° |
| 2026-05-05 08:26 | -28.37719 | 121.91674 | 35269 ft | 498 kts | 118° |
| 2026-05-05 08:26 | -28.40790 | 121.98757 | 35273 ft | 498 kts | 118° |
| 2026-05-05 08:27 | -28.43831 | 122.05782 | 35274 ft | 498 kts | 118° |
| 2026-05-05 08:27 | -28.46887 | 122.12855 | 35286 ft | 498 kts | 118° |
| 2026-05-05 08:28 | -28.49927 | 122.19901 | 35284 ft | 498 kts | 118° |
| 2026-05-05 08:28 | -28.52988 | 122.27010 | 35285 ft | 499 kts | 118° |
| 2026-05-05 08:29 | -28.56031 | 122.34090 | 35284 ft | 500 kts | 118° |
| 2026-05-05 08:30 | -28.60601 | 122.44746 | 35272 ft | 500 kts | 118° |
| 2026-05-05 08:30 | -28.63648 | 122.51867 | 35276 ft | 501 kts | 118° |
| 2026-05-05 08:31 | -28.66681 | 122.58968 | 35292 ft | 501 kts | 118° |
| 2026-05-05 08:31 | -28.69732 | 122.66126 | 35281 ft | 501 kts | 118° |
| 2026-05-05 08:32 | -28.72764 | 122.73249 | 35282 ft | 501 kts | 118° |
| 2026-05-05 08:32 | -28.75809 | 122.80418 | 35287 ft | 501 kts | 118° |
| 2026-05-05 08:33 | -28.78834 | 122.87550 | 35292 ft | 501 kts | 118° |
| 2026-05-05 08:33 | -28.81880 | 122.94748 | 35290 ft | 502 kts | 118° |
| 2026-05-05 08:34 | -28.84896 | 123.01886 | 35290 ft | 502 kts | 118° |
| 2026-05-05 08:34 | -28.87936 | 123.09094 | 35290 ft | 502 kts | 118° |
| 2026-05-05 08:35 | -28.90951 | 123.16256 | 35292 ft | 502 kts | 118° |
| 2026-05-05 08:35 | -28.93978 | 123.23463 | 35290 ft | 502 kts | 118° |
| 2026-05-05 08:36 | -28.96990 | 123.30644 | 35297 ft | 502 kts | 118° |
| 2026-05-05 08:36 | -28.99997 | 123.37828 | 35293 ft | 502 kts | 118° |
| 2026-05-05 08:37 | -29.03000 | 123.45016 | 35296 ft | 502 kts | 118° |
| 2026-05-05 08:37 | -29.06017 | 123.52248 | 35312 ft | 503 kts | 118° |
| 2026-05-05 08:38 | -29.09007 | 123.59431 | 35305 ft | 503 kts | 118° |
| 2026-05-05 08:38 | -29.11510 | 123.65454 | 35299 ft | 503 kts | 118° |
| 2026-05-05 08:39 | -29.14518 | 123.72707 | 35297 ft | 503 kts | 118° |
| 2026-05-05 08:39 | -29.17500 | 123.79906 | 35298 ft | 502 kts | 118° |
| 2026-05-05 08:40 | -29.20494 | 123.87152 | 35300 ft | 502 kts | 118° |
| 2026-05-05 08:40 | -29.23466 | 123.94356 | 35306 ft | 502 kts | 118° |
| 2026-05-05 08:41 | -29.26437 | 124.01571 | 35301 ft | 503 kts | 117° |
| 2026-05-05 08:41 | -29.29426 | 124.08845 | 35307 ft | 503 kts | 117° |
| 2026-05-05 08:42 | -29.32388 | 124.16067 | 35305 ft | 503 kts | 117° |
| 2026-05-05 08:42 | -29.35355 | 124.23312 | 35322 ft | 503 kts | 117° |
| 2026-05-05 08:43 | -29.38328 | 124.30588 | 35317 ft | 503 kts | 117° |
| 2026-05-05 08:43 | -29.41280 | 124.37826 | 35309 ft | 502 kts | 117° |
| 2026-05-05 08:44 | -29.44231 | 124.45077 | 35309 ft | 502 kts | 117° |
| 2026-05-05 08:44 | -29.47200 | 124.52384 | 35303 ft | 502 kts | 117° |
| 2026-05-05 08:45 | -29.50137 | 124.59626 | 35328 ft | 502 kts | 117° |
| 2026-05-05 08:45 | -29.53074 | 124.66883 | 35314 ft | 502 kts | 117° |
| 2026-05-05 08:46 | -29.56015 | 124.74165 | 35311 ft | 502 kts | 117° |
| 2026-05-05 08:46 | -29.58937 | 124.81411 | 35311 ft | 501 kts | 117° |
| 2026-05-05 08:47 | -29.61875 | 124.88713 | 35312 ft | 501 kts | 117° |
| 2026-05-05 08:47 | -29.64792 | 124.95976 | 35318 ft | 501 kts | 117° |
| 2026-05-05 08:48 | -29.67697 | 125.03222 | 35318 ft | 501 kts | 117° |
| 2026-05-05 08:48 | -29.70599 | 125.10476 | 35315 ft | 500 kts | 117° |
| 2026-05-05 08:49 | -29.73512 | 125.17773 | 35316 ft | 500 kts | 117° |
| 2026-05-05 08:49 | -29.76405 | 125.25032 | 35320 ft | 500 kts | 117° |
| 2026-05-05 08:50 | -29.79294 | 125.32296 | 35315 ft | 500 kts | 117° |
| 2026-05-05 08:50 | -29.82187 | 125.39584 | 35311 ft | 499 kts | 117° |
| 2026-05-05 08:51 | -29.85060 | 125.46837 | 35312 ft | 499 kts | 117° |
| 2026-05-05 08:51 | -29.87931 | 125.54097 | 35314 ft | 499 kts | 116° |
| 2026-05-05 08:52 | -29.90812 | 125.61398 | 35308 ft | 499 kts | 116° |
| 2026-05-05 08:52 | -29.93678 | 125.68673 | 35310 ft | 499 kts | 116° |
| 2026-05-05 08:53 | -29.96535 | 125.75942 | 35312 ft | 499 kts | 116° |
| 2026-05-05 08:53 | -29.99398 | 125.83241 | 35312 ft | 498 kts | 116° |
| 2026-05-05 08:54 | -30.02246 | 125.90514 | 35341 ft | 498 kts | 116° |
| 2026-05-05 08:54 | -30.05103 | 125.97825 | 35311 ft | 498 kts | 116° |
| 2026-05-05 08:55 | -30.07937 | 126.05094 | 35314 ft | 498 kts | 116° |
| 2026-05-05 08:55 | -30.10785 | 126.12410 | 35315 ft | 497 kts | 116° |
| 2026-05-05 08:56 | -30.13610 | 126.19685 | 35317 ft | 497 kts | 116° |
| 2026-05-05 08:56 | -30.16428 | 126.26953 | 35319 ft | 497 kts | 116° |
| 2026-05-05 08:57 | -30.19256 | 126.34263 | 35317 ft | 497 kts | 116° |
| 2026-05-05 08:57 | -30.22084 | 126.41589 | 35321 ft | 497 kts | 116° |
| 2026-05-05 08:58 | -30.24888 | 126.48866 | 35320 ft | 497 kts | 116° |
| 2026-05-05 08:58 | -30.27688 | 126.56148 | 35321 ft | 497 kts | 116° |
| 2026-05-05 08:59 | -30.30496 | 126.63464 | 35321 ft | 497 kts | 116° |
| 2026-05-05 08:59 | -30.33307 | 126.70803 | 35319 ft | 498 kts | 116° |
| 2026-05-05 09:00 | -30.36116 | 126.78152 | 35473 ft | 503 kts | 116° |
| 2026-05-05 09:00 | -30.37533 | 126.81865 | 35812 ft | 501 kts | 116° |
| 2026-05-05 09:00 | -30.38939 | 126.85553 | 36175 ft | 500 kts | 116° |
| 2026-05-05 09:00 | -30.40327 | 126.89200 | 36525 ft | 499 kts | 116° |
| 2026-05-05 09:01 | -30.41727 | 126.92881 | 36830 ft | 498 kts | 116° |
| 2026-05-05 09:01 | -30.43130 | 126.96572 | 37078 ft | 499 kts | 116° |
| 2026-05-05 09:01 | -30.44519 | 127.00227 | 37240 ft | 501 kts | 116° |
| 2026-05-05 09:02 | -30.47346 | 127.07683 | 37322 ft | 504 kts | 116° |
| 2026-05-05 09:02 | -30.50140 | 127.15070 | 37308 ft | 501 kts | 116° |
| 2026-05-05 09:03 | -30.52933 | 127.22473 | 37328 ft | 498 kts | 116° |
| 2026-05-05 09:03 | -30.55697 | 127.29808 | 37327 ft | 496 kts | 116° |
| 2026-05-05 09:04 | -30.58449 | 127.37126 | 37323 ft | 496 kts | 116° |
| 2026-05-05 09:04 | -30.61202 | 127.44463 | 37321 ft | 497 kts | 116° |
| 2026-05-05 09:05 | -30.63968 | 127.51850 | 37336 ft | 499 kts | 116° |
| 2026-05-05 09:05 | -30.66727 | 127.59233 | 37310 ft | 501 kts | 116° |
| 2026-05-05 09:06 | -30.69512 | 127.66702 | 37314 ft | 502 kts | 116° |
| 2026-05-05 09:06 | -30.72280 | 127.74142 | 37312 ft | 503 kts | 115° |
| 2026-05-05 09:07 | -30.75048 | 127.81600 | 37331 ft | 504 kts | 115° |
| 2026-05-05 09:07 | -30.77829 | 127.89107 | 37319 ft | 504 kts | 115° |
| 2026-05-05 09:08 | -30.80590 | 127.96576 | 37310 ft | 503 kts | 115° |
| 2026-05-05 09:08 | -30.83341 | 128.04032 | 37317 ft | 503 kts | 115° |
| 2026-05-05 09:09 | -30.85997 | 128.11602 | 37320 ft | 504 kts | 109° |
| 2026-05-05 09:09 | -30.87977 | 128.19410 | 37322 ft | 505 kts | 107° |
| 2026-05-05 09:10 | -30.89876 | 128.27254 | 37321 ft | 504 kts | 107° |
| 2026-05-05 09:10 | -30.91795 | 128.35088 | 37321 ft | 504 kts | 108° |
| 2026-05-05 09:11 | -30.93747 | 128.42970 | 37319 ft | 504 kts | 108° |
| 2026-05-05 09:11 | -30.95694 | 128.50818 | 37324 ft | 504 kts | 108° |
| 2026-05-05 09:12 | -30.97632 | 128.58656 | 37334 ft | 504 kts | 108° |
| 2026-05-05 09:12 | -30.99564 | 128.66498 | 37312 ft | 504 kts | 108° |
| 2026-05-05 09:13 | -31.01485 | 128.74321 | 37323 ft | 504 kts | 108° |
| 2026-05-05 09:13 | -31.03413 | 128.82194 | 37324 ft | 504 kts | 108° |
| 2026-05-05 09:14 | -31.05338 | 128.90077 | 37337 ft | 504 kts | 108° |
| 2026-05-05 09:14 | -31.07246 | 128.97914 | 37324 ft | 504 kts | 108° |
| 2026-05-05 09:15 | -31.09162 | 129.05807 | 37328 ft | 504 kts | 107° |
| 2026-05-05 09:15 | -31.11061 | 129.13652 | 37324 ft | 504 kts | 107° |
| 2026-05-05 09:16 | -31.12958 | 129.21513 | 37329 ft | 504 kts | 107° |
| 2026-05-05 09:16 | -31.14864 | 129.29437 | 37336 ft | 505 kts | 107° |
| 2026-05-05 09:17 | -31.16751 | 129.37298 | 37323 ft | 505 kts | 107° |
| 2026-05-05 09:17 | -31.18644 | 129.45213 | 37325 ft | 505 kts | 107° |
| 2026-05-05 09:18 | -31.20521 | 129.53083 | 37324 ft | 505 kts | 107° |
| 2026-05-05 09:18 | -31.22409 | 129.61021 | 37343 ft | 505 kts | 107° |
| 2026-05-05 09:19 | -31.24285 | 129.68932 | 37329 ft | 505 kts | 107° |
| 2026-05-05 09:19 | -31.26151 | 129.76825 | 37327 ft | 505 kts | 107° |
| 2026-05-05 09:20 | -31.28012 | 129.84720 | 37318 ft | 505 kts | 107° |
| 2026-05-05 09:20 | -31.29879 | 129.92666 | 37326 ft | 505 kts | 107° |
| 2026-05-05 09:21 | -31.31729 | 130.00565 | 37326 ft | 505 kts | 107° |
| 2026-05-05 09:21 | -31.33586 | 130.08513 | 37320 ft | 505 kts | 107° |
| 2026-05-05 09:22 | -31.35431 | 130.16437 | 37331 ft | 506 kts | 107° |
| 2026-05-05 09:22 | -31.37268 | 130.24349 | 37327 ft | 506 kts | 107° |
| 2026-05-05 09:23 | -31.39118 | 130.32342 | 37338 ft | 507 kts | 107° |
| 2026-05-05 09:23 | -31.40952 | 130.40289 | 37327 ft | 507 kts | 107° |
| 2026-05-05 09:24 | -31.42782 | 130.48244 | 37324 ft | 507 kts | 107° |
| 2026-05-05 09:24 | -31.44617 | 130.56247 | 37324 ft | 507 kts | 107° |
| 2026-05-05 09:25 | -31.46435 | 130.64197 | 37328 ft | 507 kts | 107° |
| 2026-05-05 09:25 | -31.48259 | 130.72201 | 37331 ft | 507 kts | 106° |
| 2026-05-05 09:26 | -31.50074 | 130.80192 | 37327 ft | 506 kts | 106° |
| 2026-05-05 09:26 | -31.51871 | 130.88127 | 37327 ft | 506 kts | 106° |
| 2026-05-05 09:27 | -31.53367 | 130.94748 | 37324 ft | 505 kts | 106° |
| 2026-05-05 09:27 | -31.55161 | 131.02710 | 37341 ft | 505 kts | 106° |
| 2026-05-05 09:28 | -31.56950 | 131.10668 | 37328 ft | 504 kts | 106° |
| 2026-05-05 09:28 | -31.59023 | 131.19927 | 37322 ft | 504 kts | 106° |
| 2026-05-05 09:29 | -31.60502 | 131.26554 | 37325 ft | 503 kts | 106° |
| 2026-05-05 09:29 | -31.62275 | 131.34518 | 37340 ft | 503 kts | 106° |
| 2026-05-05 09:30 | -31.64030 | 131.42427 | 37327 ft | 503 kts | 106° |
| 2026-05-05 09:30 | -31.65783 | 131.50354 | 37328 ft | 503 kts | 106° |
| 2026-05-05 09:31 | -31.67532 | 131.58287 | 37316 ft | 503 kts | 106° |
| 2026-05-05 09:31 | -31.69287 | 131.66273 | 37324 ft | 503 kts | 106° |
| 2026-05-05 09:32 | -31.71024 | 131.74204 | 37333 ft | 503 kts | 105° |
| 2026-05-05 09:32 | -31.72764 | 131.82173 | 37304 ft | 502 kts | 105° |
| 2026-05-05 09:33 | -31.74486 | 131.90086 | 37326 ft | 502 kts | 105° |
| 2026-05-05 09:33 | -31.76215 | 131.98054 | 37328 ft | 502 kts | 105° |
| 2026-05-05 09:34 | -31.77934 | 132.06002 | 37330 ft | 501 kts | 105° |
| 2026-05-05 09:34 | -31.79644 | 132.13936 | 37318 ft | 501 kts | 105° |
| 2026-05-05 09:35 | -31.81343 | 132.21845 | 37305 ft | 501 kts | 105° |
| 2026-05-05 09:35 | -31.83895 | 132.33769 | 37325 ft | 500 kts | 105° |
| 2026-05-05 09:36 | -31.85579 | 132.41672 | 37311 ft | 500 kts | 105° |
| 2026-05-05 09:36 | -31.87264 | 132.49605 | 37327 ft | 499 kts | 105° |
| 2026-05-05 09:37 | -31.88943 | 132.57537 | 37325 ft | 499 kts | 105° |
| 2026-05-05 09:37 | -31.90619 | 132.65478 | 37316 ft | 499 kts | 105° |
| 2026-05-05 09:38 | -31.92287 | 132.73408 | 37310 ft | 499 kts | 105° |
| 2026-05-05 09:38 | -31.93951 | 132.81347 | 37328 ft | 499 kts | 105° |
| 2026-05-05 09:39 | -31.95598 | 132.89232 | 37319 ft | 499 kts | 105° |
| 2026-05-05 09:39 | -31.97253 | 132.97179 | 37315 ft | 499 kts | 105° |
| 2026-05-05 09:40 | -31.98900 | 133.05120 | 37319 ft | 499 kts | 104° |
| 2026-05-05 09:40 | -32.00547 | 133.13080 | 37318 ft | 499 kts | 104° |
| 2026-05-05 09:41 | -32.02175 | 133.20979 | 37314 ft | 498 kts | 104° |
| 2026-05-05 09:41 | -32.03808 | 133.28930 | 37311 ft | 498 kts | 104° |
| 2026-05-05 09:42 | -32.05436 | 133.36878 | 37313 ft | 499 kts | 104° |
| 2026-05-05 09:42 | -32.07053 | 133.44806 | 37309 ft | 499 kts | 104° |
| 2026-05-05 09:43 | -32.08673 | 133.52773 | 37329 ft | 499 kts | 104° |
| 2026-05-05 09:43 | -32.10289 | 133.60749 | 37316 ft | 500 kts | 104° |
| 2026-05-05 09:44 | -32.11903 | 133.68736 | 37310 ft | 500 kts | 104° |
| 2026-05-05 09:44 | -32.13661 | 133.76614 | 37333 ft | 499 kts | 108° |
| 2026-05-05 09:45 | -32.15734 | 133.84453 | 37307 ft | 499 kts | 109° |
| 2026-05-05 09:45 | -32.17818 | 133.92229 | 37340 ft | 499 kts | 108° |
| 2026-05-05 09:46 | -32.19891 | 134.00081 | 37313 ft | 499 kts | 108° |
| 2026-05-05 09:46 | -32.21929 | 134.07886 | 37308 ft | 499 kts | 108° |
| 2026-05-05 09:47 | -32.23967 | 134.15732 | 37313 ft | 499 kts | 108° |
| 2026-05-05 09:47 | -32.26001 | 134.23582 | 37313 ft | 499 kts | 108° |
| 2026-05-05 09:48 | -32.28031 | 134.31432 | 37313 ft | 499 kts | 108° |
| 2026-05-05 09:48 | -32.30046 | 134.39245 | 37309 ft | 499 kts | 108° |
| 2026-05-05 09:49 | -32.32069 | 134.47110 | 37308 ft | 499 kts | 108° |
| 2026-05-05 09:49 | -32.34082 | 134.54961 | 37311 ft | 499 kts | 108° |
| 2026-05-05 09:50 | -32.36078 | 134.62767 | 37300 ft | 499 kts | 108° |
| 2026-05-05 09:50 | -32.38082 | 134.70627 | 37305 ft | 498 kts | 108° |
| 2026-05-05 09:51 | -32.40083 | 134.78499 | 37313 ft | 498 kts | 108° |
| 2026-05-05 09:51 | -32.42066 | 134.86319 | 37307 ft | 498 kts | 108° |
| 2026-05-05 09:52 | -32.44057 | 134.94195 | 37306 ft | 498 kts | 107° |
| 2026-05-05 09:52 | -32.46043 | 135.02074 | 37303 ft | 498 kts | 107° |
| 2026-05-05 09:53 | -32.48022 | 135.09950 | 37304 ft | 498 kts | 107° |
| 2026-05-05 09:53 | -32.49986 | 135.17787 | 37303 ft | 499 kts | 107° |
| 2026-05-05 09:54 | -32.51955 | 135.25671 | 37305 ft | 499 kts | 107° |
| 2026-05-05 09:54 | -32.53920 | 135.33559 | 37302 ft | 499 kts | 107° |
| 2026-05-05 09:55 | -32.55870 | 135.41408 | 37308 ft | 499 kts | 107° |
| 2026-05-05 09:55 | -32.57831 | 135.49327 | 37300 ft | 499 kts | 107° |
| 2026-05-05 09:56 | -32.59782 | 135.57232 | 37302 ft | 499 kts | 107° |
| 2026-05-05 09:56 | -32.61730 | 135.65144 | 37302 ft | 499 kts | 107° |
| 2026-05-05 09:57 | -32.63661 | 135.73011 | 37289 ft | 499 kts | 107° |
| 2026-05-05 09:57 | -32.65594 | 135.80940 | 37295 ft | 499 kts | 106° |
| 2026-05-05 09:58 | -32.67499 | 135.88818 | 37284 ft | 499 kts | 106° |
| 2026-05-05 09:58 | -32.69411 | 135.96751 | 37291 ft | 499 kts | 106° |
| 2026-05-05 09:59 | -32.71318 | 136.04677 | 37296 ft | 499 kts | 106° |
| 2026-05-05 09:59 | -32.73209 | 136.12562 | 37291 ft | 499 kts | 106° |
| 2026-05-05 10:00 | -32.75110 | 136.20511 | 37296 ft | 499 kts | 106° |
| 2026-05-05 10:00 | -32.77005 | 136.28460 | 37296 ft | 499 kts | 106° |
| 2026-05-05 10:01 | -32.78895 | 136.36409 | 37292 ft | 500 kts | 106° |
| 2026-05-05 10:01 | -32.80772 | 136.44333 | 37293 ft | 500 kts | 105° |
| 2026-05-05 10:02 | -32.82656 | 136.52306 | 37288 ft | 500 kts | 105° |
| 2026-05-05 10:02 | -32.84531 | 136.60273 | 37296 ft | 500 kts | 105° |
| 2026-05-05 10:03 | -32.86395 | 136.68212 | 37297 ft | 500 kts | 105° |
| 2026-05-05 10:03 | -32.88262 | 136.76189 | 37292 ft | 500 kts | 105° |
| 2026-05-05 10:04 | -32.90115 | 136.84131 | 37291 ft | 500 kts | 105° |
| 2026-05-05 10:04 | -32.91972 | 136.92118 | 37286 ft | 500 kts | 105° |
| 2026-05-05 10:05 | -32.93811 | 137.00051 | 37298 ft | 500 kts | 105° |
| 2026-05-05 10:05 | -32.95660 | 137.08052 | 37289 ft | 500 kts | 105° |
| 2026-05-05 10:06 | -32.97503 | 137.16052 | 37295 ft | 500 kts | 105° |
| 2026-05-05 10:06 | -32.99343 | 137.24066 | 37295 ft | 501 kts | 105° |
| 2026-05-05 10:07 | -33.01166 | 137.32031 | 37294 ft | 501 kts | 105° |
| 2026-05-05 10:07 | -33.02996 | 137.40057 | 37294 ft | 501 kts | 105° |
| 2026-05-05 10:08 | -33.04811 | 137.48034 | 37293 ft | 501 kts | 105° |
| 2026-05-05 10:08 | -33.06585 | 137.56081 | 37285 ft | 501 kts | 103° |
| 2026-05-05 10:09 | -33.08064 | 137.64201 | 37290 ft | 501 kts | 101° |
| 2026-05-05 10:09 | -33.09467 | 137.72293 | 37288 ft | 501 kts | 101° |
| 2026-05-05 10:10 | -33.10909 | 137.80423 | 37293 ft | 501 kts | 102° |
| 2026-05-05 10:10 | -33.12379 | 137.88569 | 37285 ft | 500 kts | 102° |
| 2026-05-05 10:11 | -33.13837 | 137.96640 | 37291 ft | 500 kts | 102° |
| 2026-05-05 10:11 | -33.15300 | 138.04780 | 37291 ft | 500 kts | 102° |
| 2026-05-05 10:12 | -33.16744 | 138.12858 | 37293 ft | 500 kts | 102° |
| 2026-05-05 10:12 | -33.18195 | 138.21011 | 37293 ft | 501 kts | 102° |
| 2026-05-05 10:13 | -33.19638 | 138.29147 | 37297 ft | 501 kts | 102° |
| 2026-05-05 10:13 | -33.21073 | 138.37278 | 37298 ft | 500 kts | 102° |
| 2026-05-05 10:14 | -33.22499 | 138.45385 | 37305 ft | 500 kts | 102° |
| 2026-05-05 10:14 | -33.23928 | 138.53540 | 37304 ft | 501 kts | 102° |
| 2026-05-05 10:15 | -33.25340 | 138.61634 | 37305 ft | 500 kts | 101° |
| 2026-05-05 10:15 | -33.26758 | 138.69798 | 37296 ft | 500 kts | 102° |
| 2026-05-05 10:16 | -33.28171 | 138.77963 | 37305 ft | 500 kts | 101° |
| 2026-05-05 10:16 | -33.29568 | 138.86071 | 37302 ft | 500 kts | 101° |
| 2026-05-05 10:17 | -33.30967 | 138.94223 | 37309 ft | 501 kts | 101° |
| 2026-05-05 10:17 | -33.32362 | 139.02383 | 37302 ft | 501 kts | 101° |
| 2026-05-05 10:18 | -33.33519 | 139.09178 | 37311 ft | 501 kts | 101° |
| 2026-05-05 10:18 | -33.35128 | 139.18670 | 37292 ft | 500 kts | 101° |
| 2026-05-05 10:19 | -33.36276 | 139.25470 | 37295 ft | 500 kts | 101° |
| 2026-05-05 10:19 | -33.37649 | 139.33627 | 37289 ft | 499 kts | 101° |
| 2026-05-05 10:20 | -33.39016 | 139.41792 | 37290 ft | 499 kts | 101° |
| 2026-05-05 10:20 | -33.40311 | 139.49897 | 37288 ft | 499 kts | 101° |
| 2026-05-05 10:21 | -33.41578 | 139.58074 | 37287 ft | 499 kts | 101° |
| 2026-05-05 10:21 | -33.42843 | 139.66247 | 37291 ft | 498 kts | 101° |
| 2026-05-05 10:22 | -33.44100 | 139.74348 | 37290 ft | 498 kts | 101° |
| 2026-05-05 10:22 | -33.45365 | 139.82528 | 37282 ft | 499 kts | 101° |
| 2026-05-05 10:23 | -33.46618 | 139.90663 | 37293 ft | 499 kts | 100° |
| 2026-05-05 10:23 | -33.47871 | 139.98840 | 37285 ft | 499 kts | 100° |
| 2026-05-05 10:24 | -33.49120 | 140.07026 | 37284 ft | 499 kts | 100° |
| 2026-05-05 10:24 | -33.50362 | 140.15209 | 37286 ft | 499 kts | 100° |
| 2026-05-05 10:25 | -33.51592 | 140.23350 | 37286 ft | 499 kts | 100° |
| 2026-05-05 10:25 | -33.52828 | 140.31560 | 37286 ft | 499 kts | 100° |
| 2026-05-05 10:26 | -33.54055 | 140.39757 | 37285 ft | 499 kts | 100° |
| 2026-05-05 10:26 | -33.55268 | 140.47899 | 37290 ft | 499 kts | 100° |
| 2026-05-05 10:27 | -33.56487 | 140.56114 | 37282 ft | 499 kts | 100° |
| 2026-05-05 10:27 | -33.57692 | 140.64279 | 37284 ft | 499 kts | 100° |
| 2026-05-05 10:28 | -33.58899 | 140.72491 | 37282 ft | 499 kts | 100° |
| 2026-05-05 10:28 | -33.60093 | 140.80655 | 37283 ft | 499 kts | 100° |
| 2026-05-05 10:29 | -33.61289 | 140.88877 | 37288 ft | 499 kts | 100° |
| 2026-05-05 10:29 | -33.62479 | 140.97091 | 37282 ft | 499 kts | 100° |
| 2026-05-05 10:30 | -33.63657 | 141.05264 | 37284 ft | 499 kts | 100° |
| 2026-05-05 10:30 | -33.64835 | 141.13484 | 37291 ft | 499 kts | 100° |
| 2026-05-05 10:31 | -33.66007 | 141.21704 | 37282 ft | 499 kts | 100° |
| 2026-05-05 10:31 | -33.67167 | 141.29877 | 37283 ft | 499 kts | 100° |
| 2026-05-05 10:32 | -33.68328 | 141.38101 | 37275 ft | 499 kts | 99° |
| 2026-05-05 10:32 | -33.69484 | 141.46327 | 37282 ft | 498 kts | 99° |
| 2026-05-05 10:33 | -33.70634 | 141.54552 | 37289 ft | 498 kts | 99° |
| 2026-05-05 10:33 | -33.71768 | 141.62706 | 37284 ft | 498 kts | 99° |
| 2026-05-05 10:34 | -33.72906 | 141.70931 | 37280 ft | 497 kts | 99° |
| 2026-05-05 10:34 | -33.74031 | 141.79098 | 37280 ft | 497 kts | 99° |
| 2026-05-05 10:35 | -33.75158 | 141.87318 | 37283 ft | 497 kts | 99° |
| 2026-05-05 10:35 | -33.76276 | 141.95520 | 37280 ft | 497 kts | 99° |
| 2026-05-05 10:36 | -33.77389 | 142.03726 | 37280 ft | 497 kts | 99° |
| 2026-05-05 10:36 | -33.78491 | 142.11894 | 37279 ft | 497 kts | 99° |
| 2026-05-05 10:37 | -33.79594 | 142.20111 | 37281 ft | 497 kts | 99° |
| 2026-05-05 10:37 | -33.80691 | 142.28325 | 37275 ft | 497 kts | 99° |
| 2026-05-05 10:38 | -33.81784 | 142.36557 | 37280 ft | 498 kts | 99° |
| 2026-05-05 10:38 | -33.82864 | 142.44731 | 37281 ft | 498 kts | 99° |
| 2026-05-05 10:39 | -33.83949 | 142.52976 | 37292 ft | 498 kts | 99° |
| 2026-05-05 10:39 | -33.85025 | 142.61218 | 37278 ft | 498 kts | 99° |
| 2026-05-05 10:40 | -33.86093 | 142.69458 | 37280 ft | 498 kts | 98° |
| 2026-05-05 10:40 | -33.87152 | 142.77673 | 37284 ft | 498 kts | 98° |
| 2026-05-05 10:41 | -33.88205 | 142.85879 | 37280 ft | 498 kts | 98° |
| 2026-05-05 10:41 | -33.89259 | 142.94140 | 37280 ft | 498 kts | 98° |
| 2026-05-05 10:42 | -33.90829 | 143.06527 | 37281 ft | 499 kts | 98° |
| 2026-05-05 10:43 | -33.91863 | 143.14737 | 37281 ft | 499 kts | 98° |
| 2026-05-05 10:43 | -33.92896 | 143.22998 | 37271 ft | 499 kts | 98° |
| 2026-05-05 10:44 | -33.93925 | 143.31262 | 37285 ft | 499 kts | 98° |
| 2026-05-05 10:44 | -33.94949 | 143.39535 | 37278 ft | 499 kts | 98° |
| 2026-05-05 10:45 | -33.95960 | 143.47748 | 37281 ft | 499 kts | 98° |
| 2026-05-05 10:45 | -33.96974 | 143.56035 | 37280 ft | 499 kts | 98° |
| 2026-05-05 10:46 | -33.97980 | 143.64306 | 37283 ft | 499 kts | 98° |
| 2026-05-05 10:46 | -33.98978 | 143.72549 | 37279 ft | 499 kts | 98° |
| 2026-05-05 10:47 | -33.99977 | 143.80854 | 37279 ft | 499 kts | 98° |
| 2026-05-05 10:47 | -34.00962 | 143.89096 | 37281 ft | 499 kts | 98° |
| 2026-05-05 10:48 | -34.01949 | 143.97392 | 37278 ft | 500 kts | 98° |
| 2026-05-05 10:48 | -34.02931 | 144.05701 | 37277 ft | 500 kts | 98° |
| 2026-05-05 10:49 | -34.03900 | 144.13949 | 37275 ft | 500 kts | 98° |
| 2026-05-05 10:49 | -34.04869 | 144.22249 | 37277 ft | 499 kts | 98° |
| 2026-05-05 10:50 | -34.05834 | 144.30560 | 37274 ft | 499 kts | 98° |
| 2026-05-05 10:50 | -34.06790 | 144.38840 | 37280 ft | 499 kts | 97° |
| 2026-05-05 10:51 | -34.07743 | 144.47151 | 37275 ft | 500 kts | 97° |
| 2026-05-05 10:51 | -34.08692 | 144.55472 | 37270 ft | 500 kts | 97° |
| 2026-05-05 10:52 | -34.09628 | 144.63736 | 37275 ft | 500 kts | 97° |
| 2026-05-05 10:52 | -34.10567 | 144.72077 | 37275 ft | 501 kts | 97° |
| 2026-05-05 10:53 | -34.11501 | 144.80424 | 37269 ft | 501 kts | 97° |
| 2026-05-05 10:53 | -34.12430 | 144.88772 | 37274 ft | 502 kts | 97° |
| 2026-05-05 10:54 | -34.13353 | 144.97128 | 37270 ft | 502 kts | 97° |
| 2026-05-05 10:54 | -34.14267 | 145.05452 | 37267 ft | 503 kts | 97° |
| 2026-05-05 10:55 | -34.15179 | 145.13807 | 37276 ft | 503 kts | 97° |
| 2026-05-05 10:55 | -34.16088 | 145.22190 | 37273 ft | 503 kts | 97° |
| 2026-05-05 10:56 | -34.16992 | 145.30590 | 37261 ft | 504 kts | 97° |
| 2026-05-05 10:56 | -34.17886 | 145.38945 | 37270 ft | 504 kts | 97° |
| 2026-05-05 10:57 | -34.18782 | 145.47370 | 37266 ft | 505 kts | 97° |
| 2026-05-05 10:57 | -34.19671 | 145.55795 | 37262 ft | 505 kts | 97° |
| 2026-05-05 10:58 | -34.20551 | 145.64178 | 37268 ft | 505 kts | 97° |
| 2026-05-05 10:58 | -34.21429 | 145.72614 | 37263 ft | 506 kts | 97° |
| 2026-05-05 10:59 | -34.22305 | 145.81071 | 37265 ft | 507 kts | 96° |
| 2026-05-05 10:59 | -34.23170 | 145.89490 | 37268 ft | 507 kts | 96° |
| 2026-05-05 11:00 | -34.24035 | 145.97965 | 37268 ft | 508 kts | 96° |
| 2026-05-05 11:00 | -34.24906 | 146.06447 | 37273 ft | 508 kts | 98° |
| 2026-05-05 11:01 | -34.26171 | 146.14854 | 37271 ft | 508 kts | 101° |
| 2026-05-05 11:01 | -34.27560 | 146.23212 | 37256 ft | 509 kts | 101° |
| 2026-05-05 11:02 | -34.28939 | 146.31608 | 37273 ft | 509 kts | 101° |
| 2026-05-05 11:02 | -34.30283 | 146.39972 | 37269 ft | 509 kts | 100° |
| 2026-05-05 11:03 | -34.31621 | 146.48405 | 37270 ft | 509 kts | 100° |
| 2026-05-05 11:03 | -34.32942 | 146.56778 | 37265 ft | 510 kts | 100° |
| 2026-05-05 11:04 | -34.34269 | 146.65217 | 37261 ft | 510 kts | 100° |
| 2026-05-05 11:04 | -34.35592 | 146.73665 | 37261 ft | 510 kts | 100° |
| 2026-05-05 11:05 | -34.36901 | 146.82059 | 37260 ft | 510 kts | 100° |
| 2026-05-05 11:05 | -34.38211 | 146.90504 | 37266 ft | 510 kts | 100° |
| 2026-05-05 11:06 | -34.39516 | 146.98952 | 37266 ft | 510 kts | 100° |
| 2026-05-05 11:06 | -34.40814 | 147.07399 | 37267 ft | 510 kts | 100° |
| 2026-05-05 11:07 | -34.42101 | 147.15814 | 37260 ft | 510 kts | 100° |
| 2026-05-05 11:07 | -34.43392 | 147.24294 | 37270 ft | 510 kts | 99° |
| 2026-05-05 11:08 | -34.44668 | 147.32718 | 37271 ft | 511 kts | 99° |
| 2026-05-05 11:08 | -34.45947 | 147.41201 | 37266 ft | 511 kts | 99° |
| 2026-05-05 11:09 | -34.47007 | 147.48264 | 37267 ft | 511 kts | 99° |
| 2026-05-05 11:09 | -34.48271 | 147.56722 | 37269 ft | 512 kts | 99° |
| 2026-05-05 11:10 | -34.49535 | 147.65223 | 37278 ft | 512 kts | 99° |
| 2026-05-05 11:10 | -34.50794 | 147.73732 | 37265 ft | 512 kts | 99° |
| 2026-05-05 11:11 | -34.52047 | 147.82246 | 37270 ft | 513 kts | 99° |
| 2026-05-05 11:11 | -34.53288 | 147.90722 | 37272 ft | 513 kts | 99° |
| 2026-05-05 11:12 | -34.54533 | 147.99267 | 37271 ft | 514 kts | 99° |
| 2026-05-05 11:12 | -34.55768 | 148.07782 | 37278 ft | 515 kts | 99° |
| 2026-05-05 11:13 | -34.57003 | 148.16342 | 37268 ft | 515 kts | 99° |
| 2026-05-05 11:13 | -34.58234 | 148.24923 | 37266 ft | 515 kts | 99° |
| 2026-05-05 11:14 | -34.59453 | 148.33462 | 37277 ft | 515 kts | 99° |
| 2026-05-05 11:14 | -34.60674 | 148.42055 | 37274 ft | 516 kts | 98° |
| 2026-05-05 11:15 | -34.61887 | 148.50646 | 37267 ft | 516 kts | 98° |
| 2026-05-05 11:15 | -34.63096 | 148.59246 | 37270 ft | 516 kts | 98° |
| 2026-05-05 11:16 | -34.64289 | 148.67780 | 37245 ft | 512 kts | 98° |
| 2026-05-05 11:16 | -34.64882 | 148.72039 | 36860 ft | 509 kts | 98° |
| 2026-05-05 11:16 | -34.65470 | 148.76265 | 36447 ft | 504 kts | 98° |
| 2026-05-05 11:16 | -34.66049 | 148.80443 | 36050 ft | 498 kts | 98° |
| 2026-05-05 11:17 | -34.66613 | 148.84525 | 35636 ft | 493 kts | 98° |
| 2026-05-05 11:17 | -34.67177 | 148.88622 | 35220 ft | 489 kts | 98° |
| 2026-05-05 11:17 | -34.67736 | 148.92686 | 34800 ft | 484 kts | 98° |
| 2026-05-05 11:17 | -34.68288 | 148.96719 | 34379 ft | 480 kts | 99° |
| 2026-05-05 11:18 | -34.68833 | 149.00706 | 33913 ft | 476 kts | 99° |
| 2026-05-05 11:18 | -34.69365 | 149.04604 | 33475 ft | 471 kts | 99° |
| 2026-05-05 11:18 | -34.69898 | 149.08522 | 33035 ft | 467 kts | 99° |
| 2026-05-05 11:18 | -34.70425 | 149.12405 | 32614 ft | 462 kts | 99° |
| 2026-05-05 11:19 | -34.70944 | 149.16236 | 32198 ft | 458 kts | 99° |
| 2026-05-05 11:19 | -34.71458 | 149.20042 | 31788 ft | 453 kts | 99° |
| 2026-05-05 11:19 | -34.71966 | 149.23812 | 31378 ft | 449 kts | 99° |
| 2026-05-05 11:19 | -34.72469 | 149.27550 | 30979 ft | 446 kts | 99° |
| 2026-05-05 11:20 | -34.72960 | 149.31212 | 30584 ft | 442 kts | 99° |
| 2026-05-05 11:20 | -34.73403 | 149.34887 | 30137 ft | 437 kts | 93° |
| 2026-05-05 11:20 | -34.73298 | 149.38554 | 29683 ft | 431 kts | 79° |
| 2026-05-05 11:20 | -34.72598 | 149.42074 | 29263 ft | 425 kts | 69° |
| 2026-05-05 11:21 | -34.71386 | 149.45322 | 28837 ft | 416 kts | 59° |
| 2026-05-05 11:21 | -34.70008 | 149.48402 | 28428 ft | 413 kts | 59° |
| 2026-05-05 11:21 | -34.68636 | 149.51452 | 28001 ft | 410 kts | 59° |
| 2026-05-05 11:21 | -34.67292 | 149.54454 | 27595 ft | 407 kts | 59° |
| 2026-05-05 11:22 | -34.65947 | 149.57484 | 27188 ft | 405 kts | 59° |
| 2026-05-05 11:22 | -34.64620 | 149.60494 | 26788 ft | 403 kts | 59° |
| 2026-05-05 11:22 | -34.63306 | 149.63487 | 26378 ft | 400 kts | 59° |
| 2026-05-05 11:22 | -34.61997 | 149.66473 | 25971 ft | 398 kts | 60° |
| 2026-05-05 11:23 | -34.60699 | 149.69435 | 25580 ft | 396 kts | 60° |
| 2026-05-05 11:23 | -34.59419 | 149.72353 | 25185 ft | 395 kts | 60° |
| 2026-05-05 11:23 | -34.58128 | 149.75293 | 24785 ft | 393 kts | 60° |
| 2026-05-05 11:23 | -34.56842 | 149.78220 | 24385 ft | 392 kts | 60° |
| 2026-05-05 11:24 | -34.55559 | 149.81136 | 23984 ft | 391 kts | 60° |
| 2026-05-05 11:24 | -34.54274 | 149.84057 | 23524 ft | 391 kts | 60° |
| 2026-05-05 11:24 | -34.52997 | 149.86957 | 23082 ft | 389 kts | 60° |
| 2026-05-05 11:24 | -34.51725 | 149.89843 | 22669 ft | 387 kts | 60° |
| 2026-05-05 11:25 | -34.50457 | 149.92715 | 22252 ft | 385 kts | 60° |
| 2026-05-05 11:25 | -34.49191 | 149.95580 | 21846 ft | 383 kts | 60° |
| 2026-05-05 11:25 | -34.47945 | 149.98397 | 21437 ft | 382 kts | 60° |
| 2026-05-05 11:25 | -34.46691 | 150.01230 | 21043 ft | 380 kts | 60° |
| 2026-05-05 11:26 | -34.45442 | 150.04051 | 20644 ft | 379 kts | 60° |
| 2026-05-05 11:26 | -34.44212 | 150.06827 | 20240 ft | 378 kts | 60° |
| 2026-05-05 11:26 | -34.42968 | 150.09631 | 19831 ft | 376 kts | 60° |
| 2026-05-05 11:26 | -34.41726 | 150.12429 | 19388 ft | 377 kts | 60° |
| 2026-05-05 11:27 | -34.40474 | 150.15247 | 18843 ft | 381 kts | 60° |
| 2026-05-05 11:27 | -34.39217 | 150.18075 | 18358 ft | 381 kts | 60° |
| 2026-05-05 11:27 | -34.37961 | 150.20899 | 17902 ft | 380 kts | 60° |
| 2026-05-05 11:27 | -34.36723 | 150.23683 | 17482 ft | 379 kts | 60° |
| 2026-05-05 11:28 | -34.35473 | 150.26490 | 17045 ft | 377 kts | 60° |
| 2026-05-05 11:28 | -34.34233 | 150.29270 | 16607 ft | 375 kts | 61° |
| 2026-05-05 11:28 | -34.32991 | 150.32055 | 16196 ft | 373 kts | 61° |
| 2026-05-05 11:28 | -34.31778 | 150.34771 | 15803 ft | 371 kts | 61° |
| 2026-05-05 11:29 | -34.30549 | 150.37523 | 15393 ft | 369 kts | 61° |
| 2026-05-05 11:29 | -34.29329 | 150.40252 | 14991 ft | 368 kts | 61° |
| 2026-05-05 11:29 | -34.28105 | 150.42983 | 14577 ft | 367 kts | 61° |
| 2026-05-05 11:29 | -34.26908 | 150.45658 | 14166 ft | 366 kts | 61° |
| 2026-05-05 11:30 | -34.25698 | 150.48362 | 13735 ft | 365 kts | 61° |
| 2026-05-05 11:30 | -34.24490 | 150.51058 | 13307 ft | 363 kts | 61° |
| 2026-05-05 11:30 | -34.23288 | 150.53742 | 12879 ft | 362 kts | 62° |
| 2026-05-05 11:30 | -34.22093 | 150.56406 | 12466 ft | 360 kts | 62° |
| 2026-05-05 11:31 | -34.20902 | 150.59063 | 12057 ft | 358 kts | 62° |
| 2026-05-05 11:31 | -34.19717 | 150.61703 | 11652 ft | 356 kts | 62° |
| 2026-05-05 11:31 | -34.18550 | 150.64297 | 11267 ft | 354 kts | 62° |
| 2026-05-05 11:31 | -34.17377 | 150.66906 | 10870 ft | 353 kts | 62° |
| 2026-05-05 11:32 | -34.16203 | 150.69514 | 10468 ft | 351 kts | 62° |
| 2026-05-05 11:32 | -34.15048 | 150.72080 | 10282 ft | 343 kts | 62° |
| 2026-05-05 11:32 | -34.13921 | 150.74583 | 10129 ft | 335 kts | 62° |
| 2026-05-05 11:32 | -34.12834 | 150.76996 | 9890 ft | 329 kts | 62° |
| 2026-05-05 11:33 | -34.11751 | 150.79398 | 9658 ft | 322 kts | 61° |
| 2026-05-05 11:33 | -34.10685 | 150.81761 | 9466 ft | 315 kts | 61° |
| 2026-05-05 11:33 | -34.09654 | 150.84047 | 9346 ft | 305 kts | 61° |
| 2026-05-05 11:33 | -34.08662 | 150.86248 | 9133 ft | 291 kts | 61° |
| 2026-05-05 11:34 | -34.07724 | 150.88332 | 8767 ft | 282 kts | 61° |
| 2026-05-05 11:34 | -34.06796 | 150.90393 | 8278 ft | 277 kts | 61° |
| 2026-05-05 11:34 | -34.05888 | 150.92412 | 8020 ft | 272 kts | 61° |
| 2026-05-05 11:34 | -34.04977 | 150.94433 | 7784 ft | 275 kts | 61° |
| 2026-05-05 11:35 | -34.04059 | 150.96468 | 7566 ft | 276 kts | 61° |
| 2026-05-05 11:35 | -34.03145 | 150.98491 | 7350 ft | 275 kts | 61° |
| 2026-05-05 11:35 | -34.02231 | 151.00516 | 7132 ft | 273 kts | 61° |
| 2026-05-05 11:35 | -34.01258 | 151.02447 | 6900 ft | 266 kts | 47° |
| 2026-05-05 11:36 | -33.99800 | 151.03689 | 6712 ft | 260 kts | 18° |
| 2026-05-05 11:36 | -33.98017 | 151.03945 | 6554 ft | 259 kts | 354° |
| 2026-05-05 11:36 | -33.96212 | 151.03644 | 6471 ft | 262 kts | 349° |
| 2026-05-05 11:36 | -33.94410 | 151.03246 | 6425 ft | 263 kts | 348° |
| 2026-05-05 11:37 | -33.92600 | 151.02834 | 6112 ft | 273 kts | 348° |
| 2026-05-05 11:37 | -33.90725 | 151.02384 | 5398 ft | 277 kts | 348° |
| 2026-05-05 11:37 | -33.88846 | 151.01891 | 4911 ft | 276 kts | 348° |
| 2026-05-05 11:37 | -33.86979 | 151.01382 | 4652 ft | 274 kts | 348° |
| 2026-05-05 11:38 | -33.85138 | 151.00875 | 4451 ft | 267 kts | 348° |
| 2026-05-05 11:38 | -33.83347 | 151.00376 | 4327 ft | 261 kts | 348° |
| 2026-05-05 11:38 | -33.81590 | 150.99879 | 4322 ft | 259 kts | 348° |
| 2026-05-05 11:38 | -33.79820 | 150.99377 | 4196 ft | 262 kts | 348° |
| 2026-05-05 11:39 | -33.78051 | 150.98871 | 4199 ft | 259 kts | 348° |
| 2026-05-05 11:39 | -33.76319 | 150.98373 | 4191 ft | 252 kts | 348° |
| 2026-05-05 11:39 | -33.74658 | 150.98009 | 4162 ft | 241 kts | 2° |
| 2026-05-05 11:39 | -33.73092 | 150.98526 | 4137 ft | 229 kts | 35° |
| 2026-05-05 11:40 | -33.72070 | 150.99908 | 4121 ft | 219 kts | 69° |
| 2026-05-05 11:40 | -33.71871 | 151.01680 | 4125 ft | 214 kts | 98° |
| 2026-05-05 11:40 | -33.72161 | 151.03415 | 4134 ft | 208 kts | 105° |
| 2026-05-05 11:40 | -33.72491 | 151.05033 | 4106 ft | 196 kts | 105° |
| 2026-05-05 11:41 | -33.72806 | 151.06616 | 3958 ft | 195 kts | 105° |
| 2026-05-05 11:41 | -33.73119 | 151.08189 | 3822 ft | 192 kts | 105° |
| 2026-05-05 11:41 | -33.73428 | 151.09743 | 3700 ft | 190 kts | 105° |
| 2026-05-05 11:41 | -33.73833 | 151.11222 | 3649 ft | 185 kts | 126° |
| 2026-05-05 11:42 | -33.74834 | 151.12157 | 3583 ft | 188 kts | 160° |
| 2026-05-05 11:42 | -33.76084 | 151.12645 | 3406 ft | 189 kts | 162° |
| 2026-05-05 11:42 | -33.77341 | 151.13077 | 3158 ft | 186 kts | 166° |
| 2026-05-05 11:42 | -33.78591 | 151.13430 | 2918 ft | 184 kts | 167° |
| 2026-05-05 11:43 | -33.79826 | 151.13755 | 2690 ft | 182 kts | 167° |
| 2026-05-05 11:43 | -33.81026 | 151.14067 | 2449 ft | 169 kts | 167° |
| 2026-05-05 11:43 | -33.82149 | 151.14357 | 2229 ft | 161 kts | 167° |
| 2026-05-05 11:43 | -33.83221 | 151.14635 | 2007 ft | 157 kts | 167° |
| 2026-05-05 11:44 | -33.84298 | 151.14915 | 1814 ft | 160 kts | 168° |
| 2026-05-05 11:44 | -33.85397 | 151.15200 | 1581 ft | 160 kts | 168° |
| 2026-05-05 11:44 | -33.86465 | 151.15477 | 1386 ft | 153 kts | 168° |
| 2026-05-05 11:44 | -33.87478 | 151.15741 | 1211 ft | 151 kts | 169° |
| 2026-05-05 11:45 | -33.88514 | 151.16015 | 1021 ft | 153 kts | 168° |
| 2026-05-05 11:45 | -33.89556 | 151.16289 | 799 ft | 150 kts | 171° |
| 2026-05-05 11:45 | -33.90596 | 151.16558 | 593 ft | 157 kts | 172° |
| 2026-05-05 11:45 | -33.91672 | 151.16839 | 372 ft | 157 kts | 171° |
| 2026-05-05 11:46 | -33.92750 | 151.17114 | 141 ft | 158 kts | 171° |
| 2026-05-05 11:46 | -33.93795 | 151.17377 | 32 ft | 146 kts | 168° |
| 2026-05-05 11:46 | -33.94635 | 151.17601 | 35 ft | 97 kts | 168° |
| 2026-05-05 11:46 | -33.95116 | 151.17725 | 32 ft | 44 kts | 167° |
| 2026-05-05 11:47 | -33.95232 | 151.17723 | 34 ft | 13 kts | 223° |
| 2026-05-05 11:47 | -33.95260 | 151.17634 | 34 ft | 7 kts | 256° |
| 2026-05-05 11:47 | -33.95254 | 151.17577 | 34 ft | 7 kts | 308° |
| 2026-05-05 11:47 | -33.95212 | 151.17548 | 34 ft | 7 kts | 341° |
| 2026-05-05 11:48 | -33.95114 | 151.17521 | 34 ft | 7 kts | 348° |
| 2026-05-05 11:48 | -33.95065 | 151.17508 | 34 ft | 7 kts | 347° |
| 2026-05-05 11:48 | -33.95016 | 151.17494 | 34 ft | 7 kts | 347° |
| 2026-05-05 11:49 | -33.94966 | 151.17482 | 34 ft | 8 kts | 348° |
| 2026-05-05 11:49 | -33.94911 | 151.17468 | 34 ft | 8 kts | 347° |
| 2026-05-05 11:49 | -33.94837 | 151.17448 | 34 ft | 15 kts | 348° |
| 2026-05-05 11:49 | -33.94732 | 151.17421 | 35 ft | 15 kts | 348° |
| 2026-05-05 11:50 | -33.94626 | 151.17394 | 35 ft | 15 kts | 347° |
| 2026-05-05 11:50 | -33.94521 | 151.17367 | 35 ft | 15 kts | 348° |
| 2026-05-05 11:50 | -33.94416 | 151.17340 | 35 ft | 15 kts | 348° |
| 2026-05-05 11:50 | -33.94311 | 151.17313 | 35 ft | 15 kts | 348° |
| 2026-05-05 11:51 | -33.94206 | 151.17285 | 34 ft | 15 kts | 347° |
| 2026-05-05 11:51 | -33.94101 | 151.17257 | 34 ft | 15 kts | 348° |
| 2026-05-05 11:51 | -33.94008 | 151.17234 | 34 ft | 10 kts | 348° |
| 2026-05-05 11:51 | -33.93984 | 151.17168 | 34 ft | 11 kts | 263° |
| 2026-05-05 11:52 | -33.94019 | 151.17021 | 34 ft | 21 kts | 254° |
| 2026-05-05 11:52 | -33.94058 | 151.16857 | 35 ft | 18 kts | 254° |
| 2026-05-05 11:52 | -33.94084 | 151.16744 | 35 ft | 12 kts | 254° |
| 2026-05-05 11:52 | -33.94101 | 151.16674 | 35 ft | 7 kts | 254° |
| 2026-05-05 11:53 | -33.94115 | 151.16616 | 35 ft | 7 kts | 254° |
| 2026-05-05 11:53 | -33.94094 | 151.16566 | 35 ft | 8 kts | 333° |
| 2026-05-05 11:53 | -33.94053 | 151.16549 | 35 ft | 2 kts | 344° |
| 2026-05-05 11:53 | -33.94038 | 151.16544 | 35 ft | 2 kts | 345° |
| 2026-05-05 11:54 | -33.94028 | 151.16541 | 35 ft | 1 kts | 345° |
| 2026-05-05 11:54 | -33.94026 | 151.16540 | 35 ft | 0 kts | 345° |